Time,TemperatureF,DewpointF,PressureIn,WindDirection,WindDirectionDegrees,WindSpeedMPH,WindSpeedGustMPH,Humidity,HourlyPrecipIn,Conditions,Clouds,dailyrainin,SoftwareType,DateUTC
2013-02-27 00:00:00,58.0,53.0,29.88,WSW,247,5.0,6.0,85,0.00,,,0.00,TxWx,2013-02-27 06:00:00,
2013-02-27 00:02:00,58.0,53.0,29.88,SSW,202,5.0,5.0,85,0.00,,,0.00,TxWx,2013-02-27 06:02:00,
2013-02-27 00:04:00,58.0,53.0,29.88,SSW,202,6.0,6.0,85,0.00,,,0.00,TxWx,2013-02-27 06:04:00,
2013-02-27 00:05:00,58.0,53.0,29.88,South,180,6.0,6.0,85,0.00,,,0.00,TxWx,2013-02-27 06:05:00,
2013-02-27 00:09:00,58.0,53.0,29.88,South,180,3.0,3.0,85,0.00,,,0.00,TxWx,2013-02-27 06:09:00,
2013-02-27 00:10:00,58.0,53.0,29.88,SSW,202,6.0,6.0,85,0.00,,,0.00,TxWx,2013-02-27 06:10:00,
2013-02-27 00:11:00,58.0,54.0,29.88,SW,225,6.0,7.0,85,0.00,,,0.00,TxWx,2013-02-27 06:11:00,
2013-02-27 00:15:00,58.0,54.0,29.88,South,180,6.0,6.0,85,0.00,,,0.00,TxWx,2013-02-27 06:15:00,
2013-02-27 00:16:00,58.0,54.0,29.88,SSW,202,6.0,6.0,85,0.00,,,0.00,TxWx,2013-02-27 06:16:00,
2013-02-27 00:21:00,58.0,54.0,29.89,SSW,202,6.0,6.0,85,0.00,,,0.00,TxWx,2013-02-27 06:21:00,
2013-02-27 00:22:00,58.0,54.0,29.89,SSW,202,6.0,6.0,85,0.00,,,0.00,TxWx,2013-02-27 06:22:00,
2013-02-27 00:23:00,58.0,54.0,29.89,SSW,202,5.0,5.0,86,0.00,,,0.00,TxWx,2013-02-27 06:23:00,
2013-02-27 00:26:00,58.0,54.0,29.89,SSW,202,6.0,6.0,86,0.00,,,0.00,TxWx,2013-02-27 06:26:00,
2013-02-27 00:28:00,58.0,54.0,29.89,SSW,202,9.0,9.0,86,0.00,,,0.00,TxWx,2013-02-27 06:28:00,
2013-02-27 00:29:00,58.0,54.0,29.89,SW,225,5.0,5.0,86,0.00,,,0.00,TxWx,2013-02-27 06:29:00,
2013-02-27 00:30:00,58.0,54.0,29.89,SSW,202,7.0,8.0,86,0.00,,,0.00,TxWx,2013-02-27 06:30:00,
2013-02-27 00:31:00,58.0,54.0,29.89,WSW,247,6.0,7.0,86,0.00,,,0.00,TxWx,2013-02-27 06:31:00,
2013-02-27 00:34:00,58.0,54.0,29.89,SSW,202,6.0,6.0,86,0.00,,,0.00,TxWx,2013-02-27 06:34:00,
2013-02-27 00:35:00,58.0,54.0,29.89,SSW,202,5.0,7.0,86,0.00,,,0.00,TxWx,2013-02-27 06:35:00,
2013-02-27 00:37:00,58.0,54.0,29.89,SW,225,8.0,8.0,87,0.00,,,0.00,TxWx,2013-02-27 06:37:00,
2013-02-27 00:38:00,58.0,54.0,29.89,SSW,202,9.0,9.0,87,0.00,,,0.00,TxWx,2013-02-27 06:38:00,
2013-02-27 00:39:00,58.0,54.0,29.88,South,180,6.0,6.0,87,0.00,,,0.00,TxWx,2013-02-27 06:39:00,
2013-02-27 00:42:00,58.0,54.0,29.88,SSW,202,5.0,5.0,87,0.00,,,0.00,TxWx,2013-02-27 06:42:00,
2013-02-27 00:43:00,58.0,54.0,29.88,SSW,202,6.0,7.0,87,0.00,,,0.00,TxWx,2013-02-27 06:43:00,
2013-02-27 00:45:00,58.0,54.0,29.88,SSW,202,8.0,9.0,87,0.00,,,0.00,TxWx,2013-02-27 06:45:00,
2013-02-27 00:46:00,57.0,53.0,29.88,SSW,202,7.0,7.0,87,0.00,,,0.00,TxWx,2013-02-27 06:46:00,
2013-02-27 00:48:00,57.0,53.0,29.88,SSW,202,4.0,4.0,87,0.00,,,0.00,TxWx,2013-02-27 06:48:00,
2013-02-27 00:49:00,57.0,53.0,29.88,SSW,202,7.0,7.0,87,0.00,,,0.00,TxWx,2013-02-27 06:49:00,
2013-02-27 00:52:00,58.0,54.0,29.88,SW,225,8.0,10.0,88,0.00,,,0.00,TxWx,2013-02-27 06:52:00,
2013-02-27 00:53:00,58.0,54.0,29.88,South,180,6.0,8.0,88,0.00,,,0.00,TxWx,2013-02-27 06:53:00,
2013-02-27 00:54:00,58.0,54.0,29.88,SSW,202,6.0,6.0,88,0.00,,,0.00,TxWx,2013-02-27 06:54:00,
2013-02-27 00:58:00,57.0,53.0,29.89,West,270,4.0,5.0,88,0.00,,,0.00,TxWx,2013-02-27 06:58:00,
2013-02-27 01:00:00,57.0,53.0,29.89,WSW,247,10.0,10.0,88,0.00,,,0.00,TxWx,2013-02-27 07:00:00,
2013-02-27 01:03:00,57.0,53.0,29.89,SSW,202,5.0,5.0,88,0.00,,,0.00,TxWx,2013-02-27 07:03:00,
2013-02-27 01:04:00,57.0,53.0,29.89,SW,225,9.0,9.0,88,0.00,,,0.00,TxWx,2013-02-27 07:04:00,
2013-02-27 01:05:00,57.0,53.0,29.89,SSW,202,8.0,8.0,88,0.00,,,0.00,TxWx,2013-02-27 07:05:00,
2013-02-27 01:09:00,57.0,53.0,29.88,SW,225,4.0,5.0,88,0.00,,,0.00,TxWx,2013-02-27 07:09:00,
2013-02-27 01:10:00,57.0,53.0,29.88,SW,225,6.0,6.0,88,0.00,,,0.00,TxWx,2013-02-27 07:10:00,
2013-02-27 01:11:00,57.0,53.0,29.89,SSW,202,4.0,5.0,88,0.00,,,0.00,TxWx,2013-02-27 07:11:00,
2013-02-27 01:12:00,57.0,53.0,29.88,SSW,202,6.0,6.0,88,0.00,,,0.00,TxWx,2013-02-27 07:12:00,
2013-02-27 01:15:00,57.0,54.0,29.88,South,180,5.0,5.0,89,0.00,,,0.00,TxWx,2013-02-27 07:15:00,
2013-02-27 01:17:00,57.0,54.0,29.88,SSW,202,5.0,5.0,89,0.00,,,0.00,TxWx,2013-02-27 07:17:00,
2013-02-27 01:18:00,57.0,54.0,29.88,WSW,247,5.0,5.0,89,0.00,,,0.00,TxWx,2013-02-27 07:18:00,
2013-02-27 01:20:00,57.0,54.0,29.88,West,270,6.0,6.0,89,0.00,,,0.00,TxWx,2013-02-27 07:20:00,
2013-02-27 01:23:00,57.0,54.0,29.88,SW,225,5.0,5.0,89,0.00,,,0.00,TxWx,2013-02-27 07:23:00,
2013-02-27 01:26:00,57.0,54.0,29.88,SW,225,5.0,6.0,89,0.00,,,0.00,TxWx,2013-02-27 07:26:00,
2013-02-27 01:28:00,57.0,54.0,29.88,SW,225,6.0,6.0,89,0.00,,,0.00,TxWx,2013-02-27 07:28:00,
2013-02-27 01:31:00,57.0,54.0,29.88,SW,225,4.0,5.0,90,0.00,,,0.00,TxWx,2013-02-27 07:31:00,
2013-02-27 01:32:00,56.0,53.0,29.88,SW,225,5.0,6.0,90,0.00,,,0.00,TxWx,2013-02-27 07:32:00,
2013-02-27 01:37:00,56.0,53.0,29.88,SW,225,5.0,6.0,90,0.00,,,0.00,TxWx,2013-02-27 07:37:00,
2013-02-27 01:38:00,56.0,53.0,29.88,SW,225,3.0,4.0,90,0.00,,,0.00,TxWx,2013-02-27 07:38:00,
2013-02-27 01:42:00,56.0,53.0,29.88,SW,225,6.0,8.0,91,0.00,,,0.00,TxWx,2013-02-27 07:42:00,
2013-02-27 01:43:00,56.0,53.0,29.88,SW,225,4.0,5.0,91,0.00,,,0.00,TxWx,2013-02-27 07:43:00,
2013-02-27 01:47:00,56.0,53.0,29.88,WSW,247,3.0,4.0,91,0.00,,,0.00,TxWx,2013-02-27 07:47:00,
2013-02-27 01:48:00,56.0,53.0,29.88,WSW,247,5.0,5.0,91,0.00,,,0.00,TxWx,2013-02-27 07:48:00,
2013-02-27 01:50:00,56.0,53.0,29.89,SW,225,7.0,7.0,91,0.00,,,0.00,TxWx,2013-02-27 07:50:00,
2013-02-27 01:53:00,56.0,54.0,29.88,SW,225,6.0,6.0,92,0.00,,,0.00,TxWx,2013-02-27 07:53:00,
2013-02-27 01:55:00,56.0,54.0,29.88,SSW,202,7.0,8.0,92,0.00,,,0.00,TxWx,2013-02-27 07:55:00,
2013-02-27 01:58:00,56.0,54.0,29.89,SW,225,8.0,9.0,92,0.00,,,0.00,TxWx,2013-02-27 07:58:00,
2013-02-27 02:00:00,56.0,54.0,29.88,SW,225,4.0,5.0,92,0.00,,,0.00,TxWx,2013-02-27 08:00:00,
2013-02-27 02:01:00,56.0,54.0,29.89,WSW,247,6.0,6.0,92,0.00,,,0.00,TxWx,2013-02-27 08:01:00,
2013-02-27 02:02:00,56.0,54.0,29.89,WSW,247,5.0,5.0,93,0.00,,,0.00,TxWx,2013-02-27 08:02:00,
2013-02-27 02:04:00,55.0,53.0,29.89,WSW,247,6.0,6.0,93,0.00,,,0.00,TxWx,2013-02-27 08:04:00,
2013-02-27 02:05:00,55.0,53.0,29.89,WSW,247,8.0,8.0,93,0.00,,,0.00,TxWx,2013-02-27 08:05:00,
2013-02-27 02:06:00,55.0,53.0,29.89,SW,225,8.0,8.0,93,0.00,,,0.00,TxWx,2013-02-27 08:06:00,
2013-02-27 02:09:00,55.0,53.0,29.89,WSW,247,5.0,5.0,93,0.00,,,0.00,TxWx,2013-02-27 08:09:00,
2013-02-27 02:10:00,55.0,53.0,29.89,SW,225,5.0,5.0,93,0.00,,,0.00,TxWx,2013-02-27 08:10:00,
2013-02-27 02:13:00,55.0,53.0,29.88,SW,225,7.0,8.0,93,0.00,,,0.00,TxWx,2013-02-27 08:13:00,
2013-02-27 02:14:00,55.0,53.0,29.88,SW,225,6.0,9.0,93,0.00,,,0.00,TxWx,2013-02-27 08:14:00,
2013-02-27 02:15:00,55.0,53.0,29.89,SSW,202,6.0,6.0,93,0.00,,,0.00,TxWx,2013-02-27 08:15:00,
2013-02-27 02:16:00,55.0,53.0,29.88,SW,225,8.0,10.0,93,0.00,,,0.00,TxWx,2013-02-27 08:16:00,
2013-02-27 02:20:00,56.0,54.0,29.88,SW,225,9.0,9.0,93,0.00,,,0.00,TxWx,2013-02-27 08:20:00,
2013-02-27 02:22:00,56.0,54.0,29.88,SW,225,9.0,9.0,93,0.00,,,0.00,TxWx,2013-02-27 08:22:00,
2013-02-27 02:25:00,56.0,54.0,29.88,SSW,202,6.0,8.0,92,0.00,,,0.00,TxWx,2013-02-27 08:25:00,
2013-02-27 02:26:00,56.0,54.0,29.88,SSW,202,10.0,10.0,92,0.00,,,0.00,TxWx,2013-02-27 08:26:00,
2013-02-27 02:28:00,56.0,54.0,29.88,SSW,202,7.0,7.0,92,0.00,,,0.00,TxWx,2013-02-27 08:28:00,
2013-02-27 02:30:00,55.0,53.0,29.88,SW,225,7.0,7.0,92,0.00,,,0.00,TxWx,2013-02-27 08:30:00,
2013-02-27 02:33:00,55.0,53.0,29.88,SSW,202,5.0,6.0,92,0.00,,,0.00,TxWx,2013-02-27 08:33:00,
2013-02-27 02:35:00,55.0,53.0,29.88,SSW,202,6.0,6.0,92,0.00,,,0.00,TxWx,2013-02-27 08:35:00,
2013-02-27 02:37:00,55.0,53.0,29.88,SW,225,6.0,6.0,92,0.00,,,0.00,TxWx,2013-02-27 08:37:00,
2013-02-27 02:38:00,55.0,53.0,29.88,SW,225,6.0,6.0,92,0.00,,,0.00,TxWx,2013-02-27 08:38:00,
2013-02-27 02:41:00,55.0,53.0,29.88,WSW,247,6.0,6.0,92,0.00,,,0.00,TxWx,2013-02-27 08:41:00,
2013-02-27 02:43:00,55.0,53.0,29.88,SSW,202,5.0,6.0,92,0.00,,,0.00,TxWx,2013-02-27 08:43:00,
2013-02-27 02:44:00,55.0,53.0,29.89,WSW,247,5.0,5.0,92,0.00,,,0.00,TxWx,2013-02-27 08:44:00,
2013-02-27 02:46:00,55.0,53.0,29.88,SW,225,5.0,5.0,92,0.00,,,0.00,TxWx,2013-02-27 08:46:00,
2013-02-27 02:47:00,55.0,53.0,29.88,SW,225,5.0,5.0,92,0.00,,,0.00,TxWx,2013-02-27 08:47:00,
2013-02-27 02:49:00,55.0,53.0,29.88,SSW,202,5.0,5.0,92,0.00,,,0.00,TxWx,2013-02-27 08:49:00,
2013-02-27 02:50:00,55.0,53.0,29.88,SW,225,6.0,6.0,92,0.00,,,0.00,TxWx,2013-02-27 08:50:00,
2013-02-27 02:52:00,55.0,53.0,29.88,SSW,202,5.0,6.0,92,0.00,,,0.00,TxWx,2013-02-27 08:52:00,
2013-02-27 02:53:00,55.0,53.0,29.88,SW,225,6.0,6.0,92,0.00,,,0.00,TxWx,2013-02-27 08:53:00,
2013-02-27 02:55:00,55.0,53.0,29.88,WSW,247,6.0,6.0,92,0.00,,,0.00,TxWx,2013-02-27 08:55:00,
2013-02-27 02:56:00,55.0,53.0,29.88,SW,225,6.0,6.0,92,0.00,,,0.00,TxWx,2013-02-27 08:56:00,
2013-02-27 02:57:00,55.0,53.0,29.88,SSW,202,7.0,8.0,92,0.00,,,0.00,TxWx,2013-02-27 08:57:00,
2013-02-27 03:00:00,55.0,53.0,29.88,SSW,202,5.0,6.0,92,0.00,,,0.00,TxWx,2013-02-27 09:00:00,
2013-02-27 03:02:00,55.0,53.0,29.88,SSW,202,8.0,8.0,92,0.00,,,0.00,TxWx,2013-02-27 09:02:00,
2013-02-27 03:03:00,55.0,53.0,29.88,SSW,202,5.0,5.0,92,0.00,,,0.00,TxWx,2013-02-27 09:03:00,
2013-02-27 03:05:00,55.0,53.0,29.87,SW,225,5.0,6.0,92,0.00,,,0.00,TxWx,2013-02-27 09:05:00,
2013-02-27 03:06:00,55.0,53.0,29.87,SW,225,5.0,5.0,92,0.00,,,0.00,TxWx,2013-02-27 09:06:00,
2013-02-27 03:08:00,55.0,53.0,29.87,SW,225,6.0,8.0,92,0.00,,,0.00,TxWx,2013-02-27 09:08:00,
2013-02-27 03:12:00,55.0,53.0,29.87,SW,225,6.0,6.0,92,0.00,,,0.00,TxWx,2013-02-27 09:12:00,
2013-02-27 03:13:00,55.0,53.0,29.87,SW,225,6.0,6.0,92,0.00,,,0.00,TxWx,2013-02-27 09:13:00,
2013-02-27 03:16:00,55.0,53.0,29.87,SW,225,8.0,8.0,92,0.00,,,0.00,TxWx,2013-02-27 09:16:00,
2013-02-27 03:17:00,55.0,53.0,29.87,SW,225,8.0,8.0,92,0.00,,,0.00,TxWx,2013-02-27 09:17:00,
2013-02-27 03:18:00,55.0,53.0,29.87,WSW,247,5.0,6.0,92,0.00,,,0.00,TxWx,2013-02-27 09:18:00,
2013-02-27 03:21:00,55.0,53.0,29.87,SW,225,5.0,5.0,92,0.00,,,0.00,TxWx,2013-02-27 09:21:00,
2013-02-27 03:23:00,55.0,53.0,29.88,SW,225,5.0,5.0,92,0.00,,,0.00,TxWx,2013-02-27 09:23:00,
2013-02-27 03:24:00,55.0,53.0,29.88,SW,225,5.0,5.0,92,0.00,,,0.00,TxWx,2013-02-27 09:24:00,
2013-02-27 03:26:00,55.0,53.0,29.88,WSW,247,3.0,5.0,92,0.00,,,0.00,TxWx,2013-02-27 09:26:00,
2013-02-27 03:28:00,55.0,53.0,29.88,WSW,247,4.0,5.0,92,0.00,,,0.00,TxWx,2013-02-27 09:28:00,
2013-02-27 03:29:00,55.0,53.0,29.88,SW,225,6.0,6.0,92,0.00,,,0.00,TxWx,2013-02-27 09:29:00,
2013-02-27 03:32:00,55.0,53.0,29.88,SW,225,5.0,5.0,92,0.00,,,0.00,TxWx,2013-02-27 09:32:00,
2013-02-27 03:34:00,55.0,53.0,29.87,SSW,202,5.0,5.0,92,0.00,,,0.00,TxWx,2013-02-27 09:34:00,
2013-02-27 03:35:00,55.0,53.0,29.87,SSW,202,5.0,6.0,92,0.00,,,0.00,TxWx,2013-02-27 09:35:00,
2013-02-27 03:37:00,55.0,53.0,29.87,SSW,202,6.0,6.0,92,0.00,,,0.00,TxWx,2013-02-27 09:37:00,
2013-02-27 03:41:00,55.0,53.0,29.87,SW,225,6.0,6.0,92,0.00,,,0.00,TxWx,2013-02-27 09:41:00,
2013-02-27 03:42:00,55.0,53.0,29.87,SW,225,6.0,6.0,92,0.00,,,0.00,TxWx,2013-02-27 09:42:00,
2013-02-27 03:43:00,55.0,53.0,29.87,SSW,202,5.0,5.0,92,0.00,,,0.00,TxWx,2013-02-27 09:43:00,
2013-02-27 03:47:00,55.0,53.0,29.87,SW,225,6.0,6.0,92,0.00,,,0.00,TxWx,2013-02-27 09:47:00,
2013-02-27 03:48:00,55.0,53.0,29.87,SSW,202,6.0,6.0,92,0.00,,,0.00,TxWx,2013-02-27 09:48:00,
2013-02-27 03:50:00,55.0,53.0,29.87,SSW,202,4.0,5.0,92,0.00,,,0.00,TxWx,2013-02-27 09:50:00,
2013-02-27 03:54:00,55.0,53.0,29.87,WSW,247,7.0,8.0,92,0.00,,,0.00,TxWx,2013-02-27 09:54:00,
2013-02-27 03:55:00,55.0,53.0,29.87,SW,225,5.0,5.0,92,0.00,,,0.00,TxWx,2013-02-27 09:55:00,
2013-02-27 03:59:00,55.0,53.0,29.87,SW,225,6.0,6.0,92,0.00,,,0.00,TxWx,2013-02-27 09:59:00,
2013-02-27 04:00:00,55.0,53.0,29.87,SW,225,6.0,6.0,92,0.00,,,0.00,TxWx,2013-02-27 10:00:00,
2013-02-27 04:01:00,55.0,53.0,29.87,SW,225,5.0,5.0,92,0.00,,,0.00,TxWx,2013-02-27 10:01:00,
2013-02-27 04:05:00,55.0,52.0,29.86,WSW,247,8.0,9.0,91,0.00,,,0.00,TxWx,2013-02-27 10:05:00,
2013-02-27 04:06:00,55.0,52.0,29.86,SW,225,6.0,6.0,91,0.00,,,0.00,TxWx,2013-02-27 10:06:00,
2013-02-27 04:07:00,55.0,52.0,29.86,SW,225,5.0,5.0,91,0.00,,,0.00,TxWx,2013-02-27 10:07:00,
2013-02-27 04:10:00,55.0,52.0,29.87,SW,225,5.0,5.0,91,0.00,,,0.00,TxWx,2013-02-27 10:10:00,
2013-02-27 04:11:00,55.0,52.0,29.87,SSW,202,5.0,6.0,91,0.00,,,0.00,TxWx,2013-02-27 10:11:00,
2013-02-27 04:12:00,55.0,52.0,29.87,SSW,202,6.0,6.0,91,0.00,,,0.00,TxWx,2013-02-27 10:12:00,
2013-02-27 04:17:00,55.0,52.0,29.86,SW,225,6.0,6.0,91,0.00,,,0.00,TxWx,2013-02-27 10:17:00,
2013-02-27 04:18:00,55.0,52.0,29.86,SSW,202,5.0,6.0,91,0.00,,,0.00,TxWx,2013-02-27 10:18:00,
2013-02-27 04:22:00,55.0,52.0,29.86,SSW,202,6.0,6.0,91,0.00,,,0.00,TxWx,2013-02-27 10:22:00,
2013-02-27 04:23:00,55.0,52.0,29.86,SW,225,8.0,9.0,91,0.00,,,0.00,TxWx,2013-02-27 10:23:00,
2013-02-27 04:28:00,55.0,52.0,29.86,SSE,157,5.0,6.0,91,0.00,,,0.00,TxWx,2013-02-27 10:28:00,
2013-02-27 04:29:00,56.0,53.0,29.86,SSW,202,10.0,10.0,91,0.00,,,0.00,TxWx,2013-02-27 10:29:00,
2013-02-27 04:30:00,56.0,53.0,29.86,South,180,5.0,6.0,91,0.00,,,0.00,TxWx,2013-02-27 10:30:00,
2013-02-27 04:33:00,56.0,53.0,29.86,SSW,202,6.0,6.0,91,0.00,,,0.00,TxWx,2013-02-27 10:33:00,
2013-02-27 04:34:00,56.0,53.0,29.86,South,180,5.0,5.0,91,0.00,,,0.00,TxWx,2013-02-27 10:34:00,
2013-02-27 04:36:00,56.0,53.0,29.86,SSW,202,6.0,7.0,91,0.00,,,0.00,TxWx,2013-02-27 10:36:00,
2013-02-27 04:38:00,56.0,53.0,29.86,South,180,5.0,6.0,91,0.00,,,0.00,TxWx,2013-02-27 10:38:00,
2013-02-27 04:40:00,56.0,53.0,29.86,WSW,247,3.0,5.0,91,0.00,,,0.00,TxWx,2013-02-27 10:40:00,
2013-02-27 04:42:00,56.0,53.0,29.86,SSW,202,4.0,4.0,90,0.00,,,0.00,TxWx,2013-02-27 10:42:00,
2013-02-27 04:43:00,56.0,53.0,29.87,SW,225,4.0,5.0,90,0.00,,,0.00,TxWx,2013-02-27 10:43:00,
2013-02-27 04:46:00,56.0,53.0,29.87,SSW,202,3.0,3.0,90,0.00,,,0.00,TxWx,2013-02-27 10:46:00,
2013-02-27 04:47:00,56.0,53.0,29.87,SSW,202,5.0,5.0,90,0.00,,,0.00,TxWx,2013-02-27 10:47:00,
2013-02-27 04:48:00,56.0,53.0,29.87,South,180,6.0,6.0,91,0.00,,,0.00,TxWx,2013-02-27 10:48:00,
2013-02-27 04:51:00,56.0,53.0,29.87,SSW,202,5.0,5.0,90,0.00,,,0.00,TxWx,2013-02-27 10:51:00,
2013-02-27 04:52:00,56.0,53.0,29.87,South,180,5.0,5.0,90,0.00,,,0.00,TxWx,2013-02-27 10:52:00,
2013-02-27 04:54:00,56.0,53.0,29.87,SSW,202,6.0,6.0,90,0.00,,,0.00,TxWx,2013-02-27 10:54:00,
2013-02-27 04:56:00,56.0,53.0,29.87,SSW,202,5.0,6.0,90,0.00,,,0.00,TxWx,2013-02-27 10:56:00,
2013-02-27 04:57:00,56.0,53.0,29.87,SSW,202,4.0,4.0,90,0.00,,,0.00,TxWx,2013-02-27 10:57:00,
2013-02-27 04:58:00,56.0,53.0,29.87,SW,225,4.0,4.0,90,0.00,,,0.00,TxWx,2013-02-27 10:58:00,
2013-02-27 04:59:00,56.0,53.0,29.87,SSW,202,6.0,6.0,90,0.00,,,0.00,TxWx,2013-02-27 10:59:00,
2013-02-27 05:03:00,56.0,53.0,29.87,SSW,202,5.0,5.0,90,0.00,,,0.00,TxWx,2013-02-27 11:03:00,
2013-02-27 05:07:00,56.0,53.0,29.87,SW,225,3.0,4.0,90,0.00,,,0.00,TxWx,2013-02-27 11:07:00,
2013-02-27 05:08:00,56.0,53.0,29.87,South,180,3.0,3.0,91,0.00,,,0.00,TxWx,2013-02-27 11:08:00,
2013-02-27 05:09:00,56.0,53.0,29.87,SSE,157,2.0,3.0,91,0.00,,,0.00,TxWx,2013-02-27 11:09:00,
2013-02-27 05:14:00,55.0,52.0,29.88,SSW,202,1.0,1.0,91,0.00,,,0.00,TxWx,2013-02-27 11:14:00,
2013-02-27 05:16:00,56.0,53.0,29.88,South,180,0.0,1.0,91,0.00,,,0.00,TxWx,2013-02-27 11:16:00,
2013-02-27 05:19:00,56.0,53.0,29.89,North,0,1.0,1.0,91,0.00,,,0.00,TxWx,2013-02-27 11:19:00,
2013-02-27 05:20:00,56.0,53.0,29.89,ENE,67,1.0,1.0,91,0.00,,,0.00,TxWx,2013-02-27 11:20:00,
2013-02-27 05:21:00,56.0,53.0,29.89,South,180,1.0,1.0,91,0.00,,,0.00,TxWx,2013-02-27 11:21:00,
2013-02-27 05:25:00,56.0,53.0,29.89,SSW,202,1.0,2.0,91,0.00,,,0.00,TxWx,2013-02-27 11:25:00,
2013-02-27 05:26:00,56.0,53.0,29.89,South,180,2.0,3.0,91,0.00,,,0.00,TxWx,2013-02-27 11:26:00,
2013-02-27 05:27:00,56.0,53.0,29.88,South,180,2.0,3.0,91,0.00,,,0.00,TxWx,2013-02-27 11:27:00,
2013-02-27 05:28:00,56.0,53.0,29.88,South,180,3.0,3.0,91,0.00,,,0.00,TxWx,2013-02-27 11:28:00,
2013-02-27 05:30:00,56.0,53.0,29.89,South,180,3.0,4.0,91,0.00,,,0.00,TxWx,2013-02-27 11:30:00,
2013-02-27 05:33:00,56.0,53.0,29.88,South,180,3.0,4.0,91,0.00,,,0.00,TxWx,2013-02-27 11:33:00,
2013-02-27 05:35:00,56.0,53.0,29.88,SSW,202,3.0,3.0,91,0.00,,,0.00,TxWx,2013-02-27 11:35:00,
2013-02-27 05:39:00,56.0,53.0,29.89,SSW,202,3.0,3.0,91,0.00,,,0.00,TxWx,2013-02-27 11:39:00,
2013-02-27 05:41:00,55.0,52.0,29.89,SSW,202,3.0,4.0,91,0.00,,,0.00,TxWx,2013-02-27 11:41:00,
2013-02-27 05:44:00,55.0,53.0,29.89,SSW,202,4.0,5.0,92,0.00,,,0.00,TxWx,2013-02-27 11:44:00,
2013-02-27 05:45:00,55.0,53.0,29.88,SSW,202,4.0,4.0,92,0.00,,,0.00,TxWx,2013-02-27 11:45:00,
2013-02-27 05:47:00,55.0,53.0,29.89,SSW,202,3.0,4.0,92,0.00,,,0.00,TxWx,2013-02-27 11:47:00,
2013-02-27 05:50:00,55.0,53.0,29.89,SSW,202,3.0,3.0,92,0.00,,,0.00,TxWx,2013-02-27 11:50:00,
2013-02-27 05:51:00,55.0,53.0,29.89,SSW,202,3.0,3.0,92,0.00,,,0.00,TxWx,2013-02-27 11:51:00,
2013-02-27 05:54:00,55.0,53.0,29.89,SW,225,2.0,3.0,92,0.00,,,0.00,TxWx,2013-02-27 11:54:00,
2013-02-27 05:56:00,56.0,54.0,29.89,SSW,202,3.0,3.0,92,0.00,,,0.00,TxWx,2013-02-27 11:56:00,
2013-02-27 05:57:00,56.0,54.0,29.89,SSW,202,2.0,3.0,92,0.00,,,0.00,TxWx,2013-02-27 11:57:00,
2013-02-27 05:58:00,56.0,54.0,29.89,SSW,202,3.0,3.0,93,0.00,,,0.00,TxWx,2013-02-27 11:58:00,
2013-02-27 05:59:00,56.0,54.0,29.89,SSW,202,3.0,3.0,93,0.00,,,0.00,TxWx,2013-02-27 11:59:00,
2013-02-27 06:02:00,56.0,54.0,29.89,South,180,3.0,3.0,93,0.00,,,0.00,TxWx,2013-02-27 12:02:00,
2013-02-27 06:03:00,56.0,54.0,29.89,South,180,3.0,4.0,93,0.00,,,0.00,TxWx,2013-02-27 12:03:00,
2013-02-27 06:04:00,56.0,54.0,29.89,South,180,4.0,4.0,93,0.00,,,0.00,TxWx,2013-02-27 12:04:00,
2013-02-27 06:09:00,56.0,54.0,29.89,SSW,202,5.0,5.0,93,0.00,,,0.00,TxWx,2013-02-27 12:09:00,
2013-02-27 06:11:00,56.0,54.0,29.89,SSW,202,3.0,4.0,93,0.00,,,0.00,TxWx,2013-02-27 12:11:00,
2013-02-27 06:14:00,56.0,54.0,29.89,SSW,202,3.0,3.0,93,0.00,,,0.00,TxWx,2013-02-27 12:14:00,
2013-02-27 06:15:00,56.0,54.0,29.89,South,180,3.0,3.0,93,0.00,,,0.00,TxWx,2013-02-27 12:15:00,
2013-02-27 06:16:00,56.0,54.0,29.90,South,180,3.0,3.0,93,0.00,,,0.00,TxWx,2013-02-27 12:16:00,
2013-02-27 06:20:00,56.0,54.0,29.90,SSW,202,3.0,3.0,93,0.00,,,0.00,TxWx,2013-02-27 12:20:00,
2013-02-27 06:22:00,56.0,54.0,29.90,South,180,3.0,3.0,93,0.00,,,0.00,TxWx,2013-02-27 12:22:00,
2013-02-27 06:23:00,56.0,54.0,29.90,South,180,3.0,3.0,93,0.00,,,0.00,TxWx,2013-02-27 12:23:00,
2013-02-27 06:24:00,56.0,54.0,29.89,South,180,3.0,3.0,93,0.00,,,0.00,TxWx,2013-02-27 12:24:00,
2013-02-27 06:25:00,56.0,54.0,29.90,South,180,3.0,4.0,93,0.00,,,0.00,TxWx,2013-02-27 12:25:00,
2013-02-27 06:27:00,56.0,54.0,29.89,SSW,202,3.0,4.0,93,0.00,,,0.00,TxWx,2013-02-27 12:27:00,
2013-02-27 06:29:00,56.0,54.0,29.90,South,180,3.0,4.0,94,0.00,,,0.00,TxWx,2013-02-27 12:29:00,
2013-02-27 06:30:00,56.0,54.0,29.90,South,180,3.0,3.0,94,0.00,,,0.00,TxWx,2013-02-27 12:30:00,
2013-02-27 06:34:00,56.0,54.0,29.90,South,180,3.0,3.0,94,0.00,,,0.00,TxWx,2013-02-27 12:34:00,
2013-02-27 06:35:00,56.0,54.0,29.90,South,180,3.0,3.0,94,0.00,,,0.00,TxWx,2013-02-27 12:35:00,
2013-02-27 06:36:00,56.0,54.0,29.90,South,180,3.0,3.0,94,0.00,,,0.00,TxWx,2013-02-27 12:36:00,
2013-02-27 06:40:00,57.0,55.0,29.91,South,180,2.0,3.0,94,0.00,,,0.00,TxWx,2013-02-27 12:40:00,
2013-02-27 06:41:00,57.0,55.0,29.91,South,180,2.0,3.0,94,0.00,,,0.00,TxWx,2013-02-27 12:41:00,
2013-02-27 06:43:00,57.0,55.0,29.91,South,180,1.0,1.0,94,0.00,,,0.00,TxWx,2013-02-27 12:43:00,
2013-02-27 06:46:00,57.0,55.0,29.92,SE,135,1.0,2.0,95,0.00,,,0.00,TxWx,2013-02-27 12:46:00,
2013-02-27 06:47:00,57.0,55.0,29.92,SE,135,2.0,2.0,95,0.00,,,0.00,TxWx,2013-02-27 12:47:00,
2013-02-27 06:48:00,58.0,56.0,29.92,SSE,157,3.0,3.0,95,0.00,,,0.00,TxWx,2013-02-27 12:48:00,
2013-02-27 06:51:00,58.0,57.0,29.92,SSE,157,2.0,3.0,95,0.00,,,0.00,TxWx,2013-02-27 12:51:00,
2013-02-27 06:52:00,58.0,56.0,29.92,SSE,157,3.0,3.0,95,0.00,,,0.00,TxWx,2013-02-27 12:52:00,
2013-02-27 06:53:00,58.0,56.0,29.92,SSE,157,3.0,3.0,95,0.00,,,0.00,TxWx,2013-02-27 12:53:00,
2013-02-27 06:54:00,58.0,56.0,29.92,SSE,157,3.0,3.0,95,0.00,,,0.00,TxWx,2013-02-27 12:54:00,
2013-02-27 06:58:00,58.0,56.0,29.92,East,90,2.0,2.0,95,0.00,,,0.00,TxWx,2013-02-27 12:58:00,
2013-02-27 06:59:00,58.0,56.0,29.92,ENE,67,2.0,2.0,95,0.00,,,0.00,TxWx,2013-02-27 12:59:00,
2013-02-27 07:01:00,58.0,56.0,29.93,NE,45,3.0,3.0,95,0.00,,,0.00,TxWx,2013-02-27 13:01:00,
2013-02-27 07:03:00,58.0,56.0,29.93,NNE,22,5.0,5.0,95,0.00,,,0.00,TxWx,2013-02-27 13:03:00,
2013-02-27 07:04:00,58.0,56.0,29.93,NNE,22,4.0,5.0,95,0.00,,,0.00,TxWx,2013-02-27 13:04:00,
2013-02-27 07:07:00,58.0,56.0,29.93,NNW,337,4.0,4.0,95,0.00,,,0.00,TxWx,2013-02-27 13:07:00,
2013-02-27 07:09:00,58.0,56.0,29.93,NNE,22,2.0,3.0,95,0.00,,,0.00,TxWx,2013-02-27 13:09:00,
2013-02-27 07:13:00,58.0,57.0,29.94,NNE,22,3.0,3.0,95,0.00,,,0.00,TxWx,2013-02-27 13:13:00,
2013-02-27 07:14:00,58.0,57.0,29.94,NNE,22,4.0,4.0,95,0.00,,,0.00,TxWx,2013-02-27 13:14:00,
2013-02-27 07:15:00,58.0,57.0,29.94,North,0,5.0,5.0,96,0.00,,,0.00,TxWx,2013-02-27 13:15:00,
2013-02-27 07:19:00,58.0,57.0,29.94,NNE,22,3.0,3.0,96,0.00,,,0.00,TxWx,2013-02-27 13:19:00,
2013-02-27 07:20:00,58.0,57.0,29.94,NNE,22,3.0,4.0,96,0.00,,,0.00,TxWx,2013-02-27 13:20:00,
2013-02-27 07:22:00,58.0,57.0,29.94,NNE,22,3.0,3.0,95,0.00,,,0.00,TxWx,2013-02-27 13:22:00,
2013-02-27 07:25:00,59.0,58.0,29.95,NNE,22,3.0,3.0,96,0.00,,,0.00,TxWx,2013-02-27 13:25:00,
2013-02-27 07:27:00,59.0,58.0,29.95,NNE,22,3.0,3.0,96,0.00,,,0.00,TxWx,2013-02-27 13:27:00,
2013-02-27 07:28:00,59.0,58.0,29.95,NNE,22,2.0,2.0,96,0.00,,,0.00,TxWx,2013-02-27 13:28:00,
2013-02-27 07:30:00,59.0,58.0,29.95,NNE,22,2.0,2.0,96,0.00,,,0.00,TxWx,2013-02-27 13:30:00,
2013-02-27 07:32:00,59.0,58.0,29.95,NNE,22,2.0,3.0,96,0.00,,,0.00,TxWx,2013-02-27 13:32:00,
2013-02-27 07:33:00,59.0,58.0,29.95,NNE,22,3.0,3.0,96,0.00,,,0.00,TxWx,2013-02-27 13:33:00,
2013-02-27 07:36:00,59.0,58.0,29.96,NNE,22,3.0,3.0,96,0.00,,,0.00,TxWx,2013-02-27 13:36:00,
2013-02-27 07:37:00,59.0,58.0,29.96,NNE,22,3.0,3.0,96,0.00,,,0.00,TxWx,2013-02-27 13:37:00,
2013-02-27 07:40:00,59.0,58.0,29.96,North,0,3.0,3.0,95,0.00,,,0.00,TxWx,2013-02-27 13:40:00,
2013-02-27 07:42:00,60.0,59.0,29.96,NNE,22,2.0,2.0,95,0.00,,,0.00,TxWx,2013-02-27 13:42:00,
2013-02-27 07:43:00,60.0,59.0,29.96,NNE,22,2.0,2.0,95,0.00,,,0.00,TxWx,2013-02-27 13:43:00,
2013-02-27 07:45:00,60.0,59.0,29.96,NNW,337,1.0,1.0,95,0.00,,,0.00,TxWx,2013-02-27 13:45:00,
2013-02-27 07:47:00,60.0,58.0,29.97,North,0,2.0,2.0,95,0.00,,,0.00,TxWx,2013-02-27 13:47:00,
2013-02-27 07:48:00,60.0,58.0,29.97,North,0,1.0,2.0,95,0.00,,,0.00,TxWx,2013-02-27 13:48:00,
2013-02-27 07:50:00,60.0,58.0,29.97,NNE,22,3.0,3.0,95,0.00,,,0.00,TxWx,2013-02-27 13:50:00,
2013-02-27 07:52:00,60.0,58.0,29.96,North,0,2.0,3.0,95,0.00,,,0.00,TxWx,2013-02-27 13:52:00,
2013-02-27 07:53:00,60.0,58.0,29.96,North,0,2.0,2.0,95,0.00,,,0.00,TxWx,2013-02-27 13:53:00,
2013-02-27 07:56:00,60.0,58.0,29.97,NE,45,2.0,2.0,95,0.00,,,0.00,TxWx,2013-02-27 13:56:00,
2013-02-27 07:58:00,60.0,58.0,29.97,NNW,337,1.0,1.0,95,0.00,,,0.00,TxWx,2013-02-27 13:58:00,
2013-02-27 07:59:00,60.0,58.0,29.97,North,0,1.0,1.0,95,0.00,,,0.00,TxWx,2013-02-27 13:59:00,
2013-02-27 08:01:00,61.0,59.0,29.97,NNE,22,3.0,3.0,94,0.00,,,0.00,TxWx,2013-02-27 14:01:00,
2013-02-27 08:02:00,61.0,59.0,29.97,NNE,22,3.0,3.0,94,0.00,,,0.00,TxWx,2013-02-27 14:02:00,
2013-02-27 08:03:00,61.0,59.0,29.97,NNW,337,3.0,3.0,94,0.00,,,0.00,TxWx,2013-02-27 14:03:00,
2013-02-27 08:05:00,61.0,59.0,29.97,North,0,3.0,3.0,94,0.00,,,0.00,TxWx,2013-02-27 14:05:00,
2013-02-27 08:07:00,61.0,59.0,29.97,NE,45,2.0,2.0,94,0.00,,,0.00,TxWx,2013-02-27 14:07:00,
2013-02-27 08:08:00,61.0,59.0,29.97,NE,45,3.0,3.0,94,0.00,,,0.00,TxWx,2013-02-27 14:08:00,
2013-02-27 08:09:00,61.0,59.0,29.97,NE,45,2.0,3.0,94,0.00,,,0.00,TxWx,2013-02-27 14:09:00,
2013-02-27 08:10:00,61.0,59.0,29.97,North,0,3.0,3.0,94,0.00,,,0.00,TxWx,2013-02-27 14:10:00,
2013-02-27 08:14:00,61.0,59.0,29.98,NNE,22,5.0,5.0,94,0.00,,,0.00,TxWx,2013-02-27 14:14:00,
2013-02-27 08:15:00,61.0,59.0,29.98,NNE,22,5.0,5.0,93,0.00,,,0.00,TxWx,2013-02-27 14:15:00,
2013-02-27 08:16:00,61.0,59.0,29.98,NNE,22,5.0,5.0,93,0.00,,,0.00,TxWx,2013-02-27 14:16:00,
2013-02-27 08:20:00,62.0,60.0,29.98,NNW,337,1.0,1.0,94,0.00,,,0.00,TxWx,2013-02-27 14:20:00,
2013-02-27 08:21:00,62.0,60.0,29.98,NE,45,1.0,2.0,94,0.00,,,0.00,TxWx,2013-02-27 14:21:00,
2013-02-27 08:22:00,62.0,60.0,29.98,SE,135,2.0,3.0,94,0.00,,,0.00,TxWx,2013-02-27 14:22:00,
2013-02-27 08:25:00,62.0,60.0,29.98,ENE,67,3.0,3.0,94,0.00,,,0.00,TxWx,2013-02-27 14:25:00,
2013-02-27 08:26:00,62.0,60.0,29.98,NNE,22,3.0,3.0,94,0.00,,,0.00,TxWx,2013-02-27 14:26:00,
2013-02-27 08:29:00,62.0,60.0,29.98,NE,45,3.0,3.0,94,0.00,,,0.00,TxWx,2013-02-27 14:29:00,
2013-02-27 08:30:00,62.0,60.0,29.98,ENE,67,3.0,3.0,94,0.00,,,0.00,TxWx,2013-02-27 14:30:00,
2013-02-27 08:31:00,61.0,59.0,29.98,NE,45,5.0,5.0,93,0.00,,,0.00,TxWx,2013-02-27 14:31:00,
2013-02-27 08:36:00,61.0,59.0,29.99,NNE,22,5.0,5.0,93,0.00,,,0.00,TxWx,2013-02-27 14:36:00,
2013-02-27 08:38:00,61.0,59.0,29.99,NNE,22,5.0,5.0,94,0.00,,,0.00,TxWx,2013-02-27 14:38:00,
2013-02-27 08:41:00,61.0,59.0,29.99,NE,45,4.0,4.0,94,0.00,,,0.00,TxWx,2013-02-27 14:41:00,
2013-02-27 08:42:00,61.0,59.0,29.99,NNE,22,5.0,5.0,94,0.00,,,0.00,TxWx,2013-02-27 14:42:00,
2013-02-27 08:43:00,61.0,59.0,29.99,NNE,22,5.0,5.0,94,0.00,,,0.00,TxWx,2013-02-27 14:43:00,
2013-02-27 08:44:00,60.0,58.0,29.99,NNE,22,7.0,7.0,93,0.00,,,0.00,TxWx,2013-02-27 14:44:00,
2013-02-27 08:47:00,61.0,59.0,30.00,NNE,22,3.0,3.0,93,0.00,,,0.00,TxWx,2013-02-27 14:47:00,
2013-02-27 08:48:00,61.0,59.0,30.00,NNE,22,5.0,5.0,93,0.00,,,0.00,TxWx,2013-02-27 14:48:00,
2013-02-27 08:49:00,60.0,58.0,30.00,NNE,22,6.0,6.0,93,0.00,,,0.00,TxWx,2013-02-27 14:49:00,
2013-02-27 08:52:00,60.0,58.0,30.00,NE,45,6.0,6.0,93,0.00,,,0.00,TxWx,2013-02-27 14:52:00,
2013-02-27 08:54:00,60.0,58.0,30.00,NE,45,6.0,6.0,93,0.00,,,0.00,TxWx,2013-02-27 14:54:00,
2013-02-27 08:55:00,60.0,58.0,30.00,NNE,22,5.0,5.0,92,0.00,,,0.00,TxWx,2013-02-27 14:55:00,
2013-02-27 09:00:00,61.0,59.0,30.01,NNE,22,3.0,3.0,93,0.00,,,0.00,TxWx,2013-02-27 15:00:00,
2013-02-27 09:01:00,60.0,58.0,30.01,NE,45,5.0,5.0,92,0.00,,,0.00,TxWx,2013-02-27 15:01:00,
2013-02-27 09:04:00,61.0,59.0,30.02,NNE,22,6.0,7.0,92,0.00,,,0.00,TxWx,2013-02-27 15:04:00,
2013-02-27 09:05:00,61.0,59.0,30.02,NNW,337,6.0,6.0,92,0.00,,,0.00,TxWx,2013-02-27 15:05:00,
2013-02-27 09:08:00,62.0,59.0,30.02,NNE,22,3.0,3.0,92,0.00,,,0.00,TxWx,2013-02-27 15:08:00,
2013-02-27 09:09:00,62.0,59.0,30.02,North,0,3.0,4.0,91,0.00,,,0.00,TxWx,2013-02-27 15:09:00,
2013-02-27 09:10:00,62.0,59.0,30.02,NNE,22,3.0,3.0,91,0.00,,,0.00,TxWx,2013-02-27 15:10:00,
2013-02-27 09:11:00,62.0,59.0,30.02,NE,45,6.0,6.0,90,0.00,,,0.00,TxWx,2013-02-27 15:11:00,
2013-02-27 09:13:00,62.0,58.0,30.01,NNE,22,5.0,5.0,88,0.00,,,0.00,TxWx,2013-02-27 15:13:00,
2013-02-27 09:15:00,63.0,59.0,30.03,NNE,22,8.0,8.0,88,0.00,,,0.00,TxWx,2013-02-27 15:15:00,
2013-02-27 09:16:00,63.0,59.0,30.03,NNE,22,7.0,7.0,88,0.00,,,0.00,TxWx,2013-02-27 15:16:00,
2013-02-27 09:17:00,63.0,59.0,30.03,NNW,337,8.0,9.0,87,0.00,,,0.00,TxWx,2013-02-27 15:17:00,
2013-02-27 09:18:00,62.0,56.0,30.03,NNW,337,15.0,15.0,81,0.00,,,0.00,TxWx,2013-02-27 15:18:00,
2013-02-27 09:22:00,60.0,54.0,30.03,NNW,337,7.0,8.0,80,0.00,,,0.00,TxWx,2013-02-27 15:22:00,
2013-02-27 09:25:00,60.0,54.0,30.02,NNW,337,6.0,6.0,80,0.00,,,0.00,TxWx,2013-02-27 15:25:00,
2013-02-27 09:27:00,60.0,54.0,30.03,NNW,337,11.0,11.0,80,0.00,,,0.00,TxWx,2013-02-27 15:27:00,
2013-02-27 09:28:00,60.0,54.0,30.03,NNW,337,9.0,10.0,80,0.00,,,0.00,TxWx,2013-02-27 15:28:00,
2013-02-27 09:31:00,60.0,53.0,30.03,WNW,292,8.0,8.0,79,0.00,,,0.00,TxWx,2013-02-27 15:31:00,
2013-02-27 09:32:00,60.0,53.0,30.03,NNW,337,12.0,12.0,78,0.00,,,0.00,TxWx,2013-02-27 15:32:00,
2013-02-27 09:34:00,60.0,53.0,30.03,North,0,7.0,8.0,78,0.00,,,0.00,TxWx,2013-02-27 15:34:00,
2013-02-27 09:37:00,60.0,53.0,30.03,NNW,337,14.0,14.0,78,0.00,,,0.00,TxWx,2013-02-27 15:37:00,
2013-02-27 09:38:00,60.0,53.0,30.03,NNW,337,11.0,11.0,78,0.00,,,0.00,TxWx,2013-02-27 15:38:00,
2013-02-27 09:40:00,60.0,52.0,30.03,NNW,337,16.0,17.0,76,0.00,,,0.00,TxWx,2013-02-27 15:40:00,
2013-02-27 09:43:00,60.0,52.0,30.04,NNW,337,10.0,12.0,75,0.00,,,0.00,TxWx,2013-02-27 15:43:00,
2013-02-27 09:46:00,60.0,51.0,30.04,NNW,337,9.0,10.0,74,0.00,,,0.00,TxWx,2013-02-27 15:46:00,
2013-02-27 09:48:00,61.0,53.0,30.04,North,0,8.0,10.0,74,0.00,,,0.00,TxWx,2013-02-27 15:48:00,
2013-02-27 09:49:00,61.0,52.0,30.04,NNW,337,13.0,13.0,74,0.00,,,0.00,TxWx,2013-02-27 15:49:00,
2013-02-27 09:52:00,61.0,52.0,30.04,NW,315,8.0,8.0,73,0.00,,,0.00,TxWx,2013-02-27 15:52:00,
2013-02-27 09:54:00,61.0,52.0,30.04,North,0,13.0,13.0,72,0.00,,,0.00,TxWx,2013-02-27 15:54:00,
2013-02-27 09:56:00,61.0,52.0,30.04,NNW,337,13.0,13.0,72,0.00,,,0.00,TxWx,2013-02-27 15:56:00,
2013-02-27 09:59:00,62.0,53.0,30.04,WNW,292,4.0,4.0,74,0.00,,,0.00,TxWx,2013-02-27 15:59:00,
2013-02-27 10:01:00,62.0,53.0,30.04,North,0,10.0,10.0,72,0.00,,,0.00,TxWx,2013-02-27 16:01:00,
2013-02-27 10:03:00,62.0,53.0,30.04,NNE,22,6.0,6.0,72,0.00,,,0.00,TxWx,2013-02-27 16:03:00,
2013-02-27 10:04:00,62.0,53.0,30.04,NNW,337,7.0,8.0,72,0.00,,,0.00,TxWx,2013-02-27 16:04:00,
2013-02-27 10:07:00,62.0,52.0,30.04,NNW,337,6.0,7.0,71,0.00,,,0.00,TxWx,2013-02-27 16:07:00,
2013-02-27 10:08:00,62.0,53.0,30.04,NNW,337,3.0,4.0,72,0.00,,,0.00,TxWx,2013-02-27 16:08:00,
2013-02-27 10:09:00,63.0,54.0,30.04,NW,315,6.0,6.0,72,0.00,,,0.00,TxWx,2013-02-27 16:09:00,
2013-02-27 10:10:00,63.0,53.0,30.04,NNW,337,10.0,10.0,71,0.00,,,0.00,TxWx,2013-02-27 16:10:00,
2013-02-27 10:13:00,62.0,52.0,30.04,NNW,337,10.0,10.0,70,0.00,,,0.00,TxWx,2013-02-27 16:13:00,
2013-02-27 10:15:00,63.0,53.0,30.04,NNW,337,8.0,10.0,70,0.00,,,0.00,TxWx,2013-02-27 16:15:00,
2013-02-27 10:16:00,63.0,53.0,30.04,NE,45,2.0,2.0,71,0.00,,,0.00,TxWx,2013-02-27 16:16:00,
2013-02-27 10:18:00,63.0,53.0,30.04,NNW,337,6.0,6.0,70,0.00,,,0.00,TxWx,2013-02-27 16:18:00,
2013-02-27 10:21:00,63.0,53.0,30.04,NNE,22,10.0,11.0,70,0.00,,,0.00,TxWx,2013-02-27 16:21:00,
2013-02-27 10:22:00,63.0,53.0,30.04,NNW,337,5.0,5.0,70,0.00,,,0.00,TxWx,2013-02-27 16:22:00,
2013-02-27 10:25:00,63.0,53.0,30.04,NNE,22,6.0,6.0,69,0.00,,,0.00,TxWx,2013-02-27 16:25:00,
2013-02-27 10:27:00,64.0,54.0,30.04,North,0,5.0,5.0,69,0.00,,,0.00,TxWx,2013-02-27 16:27:00,
2013-02-27 10:29:00,64.0,54.0,30.04,NE,45,6.0,6.0,70,0.00,,,0.00,TxWx,2013-02-27 16:29:00,
2013-02-27 10:33:00,63.0,52.0,30.04,NE,45,9.0,9.0,69,0.00,,,0.00,TxWx,2013-02-27 16:33:00,
2013-02-27 10:34:00,64.0,54.0,30.04,NNE,22,6.0,6.0,70,0.00,,,0.00,TxWx,2013-02-27 16:34:00,
2013-02-27 10:37:00,64.0,54.0,30.04,NNE,22,6.0,8.0,70,0.00,,,0.00,TxWx,2013-02-27 16:37:00,
2013-02-27 10:38:00,64.0,54.0,30.04,NNW,337,4.0,5.0,70,0.00,,,0.00,TxWx,2013-02-27 16:38:00,
2013-02-27 10:40:00,64.0,54.0,30.04,ENE,67,7.0,7.0,70,0.00,,,0.00,TxWx,2013-02-27 16:40:00,
2013-02-27 10:41:00,64.0,54.0,30.04,NNE,22,8.0,8.0,70,0.00,,,0.00,TxWx,2013-02-27 16:41:00,
2013-02-27 10:42:00,64.0,54.0,30.04,NE,45,3.0,3.0,70,0.00,,,0.00,TxWx,2013-02-27 16:42:00,
2013-02-27 10:44:00,64.0,54.0,30.04,NE,45,7.0,8.0,70,0.00,,,0.00,TxWx,2013-02-27 16:44:00,
2013-02-27 10:46:00,64.0,54.0,30.04,NE,45,8.0,10.0,70,0.00,,,0.00,TxWx,2013-02-27 16:46:00,
2013-02-27 10:47:00,64.0,54.0,30.04,NE,45,7.0,7.0,70,0.00,,,0.00,TxWx,2013-02-27 16:47:00,
2013-02-27 10:49:00,64.0,54.0,30.04,NE,45,8.0,9.0,69,0.00,,,0.00,TxWx,2013-02-27 16:49:00,
2013-02-27 10:52:00,64.0,54.0,30.04,East,90,5.0,6.0,70,0.00,,,0.00,TxWx,2013-02-27 16:52:00,
2013-02-27 10:54:00,65.0,55.0,30.04,NNE,22,5.0,5.0,70,0.00,,,0.00,TxWx,2013-02-27 16:54:00,
2013-02-27 10:56:00,65.0,55.0,30.04,NNE,22,5.0,5.0,70,0.00,,,0.00,TxWx,2013-02-27 16:56:00,
2013-02-27 10:58:00,65.0,55.0,30.03,NNE,22,5.0,5.0,70,0.00,,,0.00,TxWx,2013-02-27 16:58:00,
2013-02-27 10:59:00,65.0,55.0,30.04,NE,45,5.0,6.0,70,0.00,,,0.00,TxWx,2013-02-27 16:59:00,
2013-02-27 11:03:00,64.0,53.0,30.03,ENE,67,8.0,8.0,68,0.00,,,0.00,TxWx,2013-02-27 17:03:00,
2013-02-27 11:04:00,64.0,53.0,30.04,ENE,67,5.0,6.0,69,0.00,,,0.00,TxWx,2013-02-27 17:04:00,
2013-02-27 11:05:00,64.0,54.0,30.04,NE,45,5.0,5.0,70,0.00,,,0.00,TxWx,2013-02-27 17:05:00,
2013-02-27 11:06:00,65.0,56.0,30.04,NE,45,5.0,5.0,72,0.00,,,0.00,TxWx,2013-02-27 17:06:00,
2013-02-27 11:09:00,64.0,54.0,30.04,NE,45,6.0,6.0,71,0.00,,,0.00,TxWx,2013-02-27 17:09:00,
2013-02-27 11:10:00,64.0,54.0,30.04,NE,45,5.0,6.0,69,0.00,,,0.00,TxWx,2013-02-27 17:10:00,
2013-02-27 11:11:00,64.0,54.0,30.04,NE,45,3.0,3.0,70,0.00,,,0.00,TxWx,2013-02-27 17:11:00,
2013-02-27 11:14:00,65.0,55.0,30.04,NE,45,4.0,4.0,70,0.00,,,0.00,TxWx,2013-02-27 17:14:00,
2013-02-27 11:15:00,64.0,53.0,30.04,NNE,22,6.0,6.0,69,0.00,,,0.00,TxWx,2013-02-27 17:15:00,
2013-02-27 11:16:00,65.0,55.0,30.04,ENE,67,5.0,5.0,70,0.00,,,0.00,TxWx,2013-02-27 17:16:00,
2013-02-27 11:18:00,65.0,56.0,30.04,ENE,67,6.0,6.0,72,0.00,,,0.00,TxWx,2013-02-27 17:18:00,
2013-02-27 11:21:00,64.0,55.0,30.04,East,90,7.0,7.0,73,0.00,,,0.00,TxWx,2013-02-27 17:21:00,
2013-02-27 11:22:00,63.0,54.0,30.04,ENE,67,8.0,8.0,72,0.00,,,0.00,TxWx,2013-02-27 17:22:00,
2013-02-27 11:23:00,64.0,55.0,30.04,ENE,67,8.0,8.0,73,0.00,,,0.00,TxWx,2013-02-27 17:23:00,
2013-02-27 11:24:00,64.0,56.0,30.04,ENE,67,6.0,6.0,74,0.00,,,0.00,TxWx,2013-02-27 17:24:00,
2013-02-27 11:27:00,64.0,55.0,30.04,ENE,67,8.0,8.0,73,0.00,,,0.00,TxWx,2013-02-27 17:27:00,
2013-02-27 11:28:00,64.0,55.0,30.04,NE,45,5.0,5.0,73,0.00,,,0.00,TxWx,2013-02-27 17:28:00,
2013-02-27 11:30:00,64.0,55.0,30.04,ENE,67,6.0,6.0,73,0.00,,,0.00,TxWx,2013-02-27 17:30:00,
2013-02-27 11:33:00,64.0,55.0,30.04,NE,45,6.0,6.0,73,0.00,,,0.00,TxWx,2013-02-27 17:33:00,
2013-02-27 11:34:00,64.0,55.0,30.04,ENE,67,5.0,6.0,72,0.00,,,0.00,TxWx,2013-02-27 17:34:00,
2013-02-27 11:36:00,64.0,55.0,30.04,NE,45,5.0,5.0,72,0.00,,,0.00,TxWx,2013-02-27 17:36:00,
2013-02-27 11:38:00,65.0,56.0,30.03,East,90,3.0,3.0,72,0.00,,,0.00,TxWx,2013-02-27 17:38:00,
2013-02-27 11:40:00,65.0,55.0,30.03,East,90,7.0,7.0,70,0.00,,,0.00,TxWx,2013-02-27 17:40:00,
2013-02-27 11:42:00,64.0,54.0,30.03,East,90,5.0,5.0,71,0.00,,,0.00,TxWx,2013-02-27 17:42:00,
2013-02-27 11:43:00,65.0,56.0,30.03,ESE,112,6.0,6.0,72,0.00,,,0.00,TxWx,2013-02-27 17:43:00,
2013-02-27 11:47:00,65.0,55.0,30.03,NE,45,4.0,5.0,71,0.00,,,0.00,TxWx,2013-02-27 17:47:00,
2013-02-27 11:49:00,66.0,56.0,30.03,ENE,67,5.0,5.0,71,0.00,,,0.00,TxWx,2013-02-27 17:49:00,
2013-02-27 11:55:00,66.0,56.0,30.03,ENE,67,3.0,3.0,72,0.00,,,0.00,TxWx,2013-02-27 17:55:00,
2013-02-27 11:58:00,66.0,56.0,30.03,ENE,67,8.0,8.0,71,0.00,,,0.00,TxWx,2013-02-27 17:58:00,
2013-02-27 12:01:00,66.0,56.0,30.02,East,90,4.0,4.0,70,0.00,,,0.00,TxWx,2013-02-27 18:01:00,
2013-02-27 12:02:00,67.0,57.0,30.03,East,90,6.0,6.0,70,0.00,,,0.00,TxWx,2013-02-27 18:02:00,
2013-02-27 12:04:00,67.0,57.0,30.03,NNE,22,7.0,7.0,70,0.00,,,0.00,TxWx,2013-02-27 18:04:00,
2013-02-27 12:05:00,67.0,56.0,30.03,NE,45,3.0,4.0,69,0.00,,,0.00,TxWx,2013-02-27 18:05:00,
2013-02-27 12:06:00,67.0,56.0,30.03,NNE,22,4.0,4.0,68,0.00,,,0.00,TxWx,2013-02-27 18:06:00,
2013-02-27 12:10:00,67.0,56.0,30.02,ENE,67,3.0,4.0,69,0.00,,,0.00,TxWx,2013-02-27 18:10:00,
2013-02-27 12:11:00,67.0,56.0,30.03,North,0,5.0,5.0,69,0.00,,,0.00,TxWx,2013-02-27 18:11:00,
2013-02-27 12:12:00,67.0,55.0,30.02,NNE,22,6.0,8.0,66,0.00,,,0.00,TxWx,2013-02-27 18:12:00,
2013-02-27 12:15:00,69.0,52.0,30.02,NNW,337,11.0,11.0,54,0.00,,,0.00,TxWx,2013-02-27 18:15:00,
2013-02-27 12:16:00,70.0,53.0,30.02,NNE,22,8.0,8.0,55,0.00,,,0.00,TxWx,2013-02-27 18:16:00,
2013-02-27 12:17:00,69.0,51.0,30.02,NNW,337,11.0,11.0,52,0.00,,,0.00,TxWx,2013-02-27 18:17:00,
2013-02-27 12:22:00,70.0,50.0,30.02,NNW,337,11.0,13.0,49,0.00,,,0.00,TxWx,2013-02-27 18:22:00,
2013-02-27 12:23:00,70.0,50.0,30.02,North,0,8.0,8.0,49,0.00,,,0.00,TxWx,2013-02-27 18:23:00,
2013-02-27 12:27:00,70.0,49.0,30.02,North,0,9.0,9.0,47,0.00,,,0.00,TxWx,2013-02-27 18:27:00,
2013-02-27 12:28:00,71.0,50.0,30.02,NE,45,6.0,6.0,48,0.00,,,0.00,TxWx,2013-02-27 18:28:00,
2013-02-27 12:29:00,70.0,49.0,30.02,NNE,22,8.0,10.0,47,0.00,,,0.00,TxWx,2013-02-27 18:29:00,
2013-02-27 12:32:00,71.0,50.0,30.02,West,270,11.0,13.0,47,0.00,,,0.00,TxWx,2013-02-27 18:32:00,
2013-02-27 12:34:00,71.0,49.0,30.02,NW,315,8.0,11.0,46,0.00,,,0.00,TxWx,2013-02-27 18:34:00,
2013-02-27 12:36:00,71.0,48.0,30.02,North,0,13.0,16.0,45,0.00,,,0.00,TxWx,2013-02-27 18:36:00,
2013-02-27 12:38:00,71.0,48.0,30.02,NNW,337,9.0,9.0,45,0.00,,,0.00,TxWx,2013-02-27 18:38:00,
2013-02-27 12:40:00,72.0,49.0,30.02,ESE,112,4.0,5.0,45,0.00,,,0.00,TxWx,2013-02-27 18:40:00,
2013-02-27 12:42:00,72.0,48.0,30.02,NNW,337,12.0,12.0,43,0.00,,,0.00,TxWx,2013-02-27 18:42:00,
2013-02-27 12:43:00,72.0,48.0,30.02,NW,315,8.0,9.0,43,0.00,,,0.00,TxWx,2013-02-27 18:43:00,
2013-02-27 12:45:00,71.0,46.0,30.02,WNW,292,9.0,10.0,42,0.00,,,0.00,TxWx,2013-02-27 18:45:00,
2013-02-27 12:48:00,72.0,48.0,30.02,NNW,337,7.0,10.0,43,0.00,,,0.00,TxWx,2013-02-27 18:48:00,
2013-02-27 12:49:00,72.0,49.0,30.02,NNE,22,6.0,6.0,44,0.00,,,0.00,TxWx,2013-02-27 18:49:00,
2013-02-27 12:50:00,72.0,48.0,30.02,ENE,67,8.0,9.0,43,0.00,,,0.00,TxWx,2013-02-27 18:50:00,
2013-02-27 12:54:00,71.0,48.0,30.01,North,0,10.0,12.0,45,0.00,,,0.00,TxWx,2013-02-27 18:54:00,
2013-02-27 12:55:00,71.0,48.0,30.01,NE,45,5.0,5.0,45,0.00,,,0.00,TxWx,2013-02-27 18:55:00,
2013-02-27 12:58:00,72.0,48.0,30.01,ENE,67,7.0,9.0,43,0.00,,,0.00,TxWx,2013-02-27 18:58:00,
2013-02-27 13:00:00,72.0,48.0,30.02,NNE,22,9.0,9.0,42,0.00,,,0.00,TxWx,2013-02-27 19:00:00,
2013-02-27 13:02:00,72.0,48.0,30.01,NNW,337,8.0,10.0,42,0.00,,,0.00,TxWx,2013-02-27 19:02:00,
2013-02-27 13:05:00,72.0,48.0,30.01,NNE,22,11.0,11.0,42,0.00,,,0.00,TxWx,2013-02-27 19:05:00,
2013-02-27 13:07:00,72.0,47.0,30.01,North,0,9.0,13.0,41,0.00,,,0.00,TxWx,2013-02-27 19:07:00,
2013-02-27 13:10:00,72.0,48.0,30.01,North,0,6.0,6.0,42,0.00,,,0.00,TxWx,2013-02-27 19:10:00,
2013-02-27 13:11:00,72.0,47.0,30.01,NNE,22,11.0,12.0,42,0.00,,,0.00,TxWx,2013-02-27 19:11:00,
2013-02-27 13:13:00,71.0,47.0,30.01,NNW,337,10.0,10.0,42,0.00,,,0.00,TxWx,2013-02-27 19:13:00,
2013-02-27 13:17:00,72.0,48.0,30.01,NNE,22,3.0,4.0,42,0.00,,,0.00,TxWx,2013-02-27 19:17:00,
2013-02-27 13:18:00,73.0,49.0,30.01,NNE,22,8.0,8.0,43,0.00,,,0.00,TxWx,2013-02-27 19:18:00,
2013-02-27 13:23:00,72.0,49.0,30.01,NW,315,6.0,8.0,44,0.00,,,0.00,TxWx,2013-02-27 19:23:00,
2013-02-27 13:26:00,72.0,49.0,30.01,NNE,22,7.0,8.0,44,0.00,,,0.00,TxWx,2013-02-27 19:26:00,
2013-02-27 13:29:00,72.0,49.0,30.01,NE,45,8.0,9.0,44,0.00,,,0.00,TxWx,2013-02-27 19:29:00,
2013-02-27 13:31:00,72.0,49.0,30.01,NE,45,10.0,10.0,44,0.00,,,0.00,TxWx,2013-02-27 19:31:00,
2013-02-27 13:37:00,72.0,50.0,30.00,NE,45,8.0,8.0,46,0.00,,,0.00,TxWx,2013-02-27 19:37:00,
2013-02-27 13:38:00,71.0,49.0,30.01,NNE,22,7.0,7.0,46,0.00,,,0.00,TxWx,2013-02-27 19:38:00,
2013-02-27 13:42:00,71.0,50.0,30.01,NE,45,8.0,8.0,48,0.00,,,0.00,TxWx,2013-02-27 19:42:00,
2013-02-27 13:43:00,72.0,51.0,30.00,NNE,22,5.0,5.0,49,0.00,,,0.00,TxWx,2013-02-27 19:43:00,
2013-02-27 13:45:00,71.0,49.0,30.00,NE,45,8.0,9.0,46,0.00,,,0.00,TxWx,2013-02-27 19:45:00,
2013-02-27 13:48:00,71.0,50.0,30.00,NNE,22,11.0,11.0,48,0.00,,,0.00,TxWx,2013-02-27 19:48:00,
2013-02-27 13:52:00,72.0,52.0,30.00,North,0,9.0,10.0,50,0.00,,,0.00,TxWx,2013-02-27 19:52:00,
2013-02-27 13:53:00,72.0,51.0,30.00,ENE,67,7.0,7.0,47,0.00,,,0.00,TxWx,2013-02-27 19:53:00,
2013-02-27 13:54:00,72.0,51.0,30.00,NE,45,6.0,7.0,48,0.00,,,0.00,TxWx,2013-02-27 19:54:00,
2013-02-27 13:58:00,72.0,50.0,30.00,NE,45,5.0,6.0,47,0.00,,,0.00,TxWx,2013-02-27 19:58:00,
2013-02-27 13:59:00,72.0,49.0,30.00,NNE,22,10.0,10.0,44,0.00,,,0.00,TxWx,2013-02-27 19:59:00,
2013-02-27 14:04:00,72.0,49.0,30.00,NE,45,10.0,11.0,45,0.00,,,0.00,TxWx,2013-02-27 20:04:00,
2013-02-27 14:05:00,72.0,49.0,30.00,NNE,22,11.0,11.0,44,0.00,,,0.00,TxWx,2013-02-27 20:05:00,
2013-02-27 14:09:00,72.0,49.0,30.00,NE,45,6.0,7.0,45,0.00,,,0.00,TxWx,2013-02-27 20:09:00,
2013-02-27 14:10:00,72.0,49.0,30.00,NE,45,8.0,8.0,45,0.00,,,0.00,TxWx,2013-02-27 20:10:00,
2013-02-27 14:11:00,73.0,47.0,30.01,East,90,8.0,10.0,39,0.00,,,0.00,TxWx,2013-02-27 20:11:00,
2013-02-27 14:15:00,73.0,40.0,30.00,NNE,22,8.0,10.0,31,0.00,,,0.00,TxWx,2013-02-27 20:15:00,
2013-02-27 14:16:00,74.0,40.0,30.00,North,0,18.0,18.0,29,0.00,,,0.00,TxWx,2013-02-27 20:16:00,
2013-02-27 14:17:00,74.0,38.0,30.00,NNE,22,9.0,9.0,28,0.00,,,0.00,TxWx,2013-02-27 20:17:00,
2013-02-27 14:18:00,74.0,35.0,30.00,North,0,9.0,13.0,25,0.00,,,0.00,TxWx,2013-02-27 20:18:00,
2013-02-27 14:21:00,74.0,35.0,30.00,NNW,337,19.0,22.0,25,0.00,,,0.00,TxWx,2013-02-27 20:21:00,
2013-02-27 14:22:00,74.0,34.0,30.00,NNE,22,14.0,15.0,24,0.00,,,0.00,TxWx,2013-02-27 20:22:00,
2013-02-27 14:23:00,74.0,35.0,30.00,NNE,22,11.0,12.0,24,0.00,,,0.00,TxWx,2013-02-27 20:23:00,
2013-02-27 14:26:00,74.0,35.0,30.00,NNE,22,13.0,13.0,24,0.00,,,0.00,TxWx,2013-02-27 20:26:00,
2013-02-27 14:27:00,74.0,38.0,30.00,NNE,22,13.0,13.0,28,0.00,,,0.00,TxWx,2013-02-27 20:27:00,
2013-02-27 14:28:00,74.0,40.0,30.00,NE,45,8.0,8.0,30,0.00,,,0.00,TxWx,2013-02-27 20:28:00,
2013-02-27 14:32:00,72.0,39.0,30.00,NNE,22,13.0,13.0,30,0.00,,,0.00,TxWx,2013-02-27 20:32:00,
2013-02-27 14:33:00,72.0,39.0,30.00,NNE,22,13.0,13.0,31,0.00,,,0.00,TxWx,2013-02-27 20:33:00,
2013-02-27 14:34:00,73.0,40.0,30.00,North,0,8.0,10.0,30,0.00,,,0.00,TxWx,2013-02-27 20:34:00,
2013-02-27 14:38:00,72.0,43.0,30.00,North,0,10.0,10.0,36,0.00,,,0.00,TxWx,2013-02-27 20:38:00,
2013-02-27 14:40:00,72.0,44.0,30.00,NNE,22,10.0,10.0,37,0.00,,,0.00,TxWx,2013-02-27 20:40:00,
2013-02-27 14:43:00,73.0,46.0,30.00,NNW,337,6.0,8.0,38,0.00,,,0.00,TxWx,2013-02-27 20:43:00,
2013-02-27 14:44:00,73.0,45.0,30.00,NNE,22,10.0,10.0,37,0.00,,,0.00,TxWx,2013-02-27 20:44:00,
2013-02-27 14:45:00,72.0,41.0,30.00,NE,45,14.0,14.0,33,0.00,,,0.00,TxWx,2013-02-27 20:45:00,
2013-02-27 14:49:00,73.0,43.0,30.00,North,0,6.0,7.0,34,0.00,,,0.00,TxWx,2013-02-27 20:49:00,
2013-02-27 14:51:00,73.0,43.0,30.00,NE,45,6.0,8.0,34,0.00,,,0.00,TxWx,2013-02-27 20:51:00,
2013-02-27 14:52:00,73.0,43.0,30.00,NE,45,10.0,10.0,35,0.00,,,0.00,TxWx,2013-02-27 20:52:00,
2013-02-27 14:55:00,72.0,42.0,30.00,NE,45,6.0,9.0,34,0.00,,,0.00,TxWx,2013-02-27 20:55:00,
2013-02-27 14:56:00,72.0,41.0,30.00,NE,45,8.0,8.0,33,0.00,,,0.00,TxWx,2013-02-27 20:56:00,
2013-02-27 14:59:00,72.0,42.0,30.00,NNE,22,11.0,15.0,35,0.00,,,0.00,TxWx,2013-02-27 20:59:00,
2013-02-27 15:00:00,72.0,42.0,30.00,North,0,13.0,14.0,35,0.00,,,0.00,TxWx,2013-02-27 21:00:00,
2013-02-27 15:02:00,72.0,43.0,30.00,North,0,10.0,10.0,36,0.00,,,0.00,TxWx,2013-02-27 21:02:00,
2013-02-27 15:04:00,71.0,41.0,30.00,ENE,67,8.0,11.0,34,0.00,,,0.00,TxWx,2013-02-27 21:04:00,
2013-02-27 15:06:00,72.0,42.0,30.00,NNE,22,7.0,7.0,35,0.00,,,0.00,TxWx,2013-02-27 21:06:00,
2013-02-27 15:08:00,72.0,38.0,30.00,ENE,67,12.0,13.0,29,0.00,,,0.00,TxWx,2013-02-27 21:08:00,
2013-02-27 15:10:00,72.0,37.0,30.00,NE,45,9.0,9.0,28,0.00,,,0.00,TxWx,2013-02-27 21:10:00,
2013-02-27 15:12:00,72.0,41.0,30.00,North,0,5.0,6.0,33,0.00,,,0.00,TxWx,2013-02-27 21:12:00,
2013-02-27 15:15:00,72.0,37.0,30.00,NE,45,13.0,13.0,29,0.00,,,0.00,TxWx,2013-02-27 21:15:00,
2013-02-27 15:18:00,73.0,36.0,30.00,North,0,9.0,11.0,26,0.00,,,0.00,TxWx,2013-02-27 21:18:00,
2013-02-27 15:20:00,73.0,35.0,30.00,NNE,22,10.0,10.0,25,0.00,,,0.00,TxWx,2013-02-27 21:20:00,
2013-02-27 15:25:00,72.0,40.0,30.00,NE,45,7.0,9.0,31,0.00,,,0.00,TxWx,2013-02-27 21:25:00,
2013-02-27 15:26:00,72.0,41.0,30.00,North,0,10.0,11.0,33,0.00,,,0.00,TxWx,2013-02-27 21:26:00,
2013-02-27 15:31:00,72.0,38.0,30.00,NNE,22,8.0,12.0,30,0.00,,,0.00,TxWx,2013-02-27 21:31:00,
2013-02-27 15:32:00,71.0,40.0,30.00,NNE,22,11.0,13.0,32,0.00,,,0.00,TxWx,2013-02-27 21:32:00,
2013-02-27 15:33:00,71.0,40.0,30.00,NE,45,8.0,10.0,33,0.00,,,0.00,TxWx,2013-02-27 21:33:00,
2013-02-27 15:36:00,71.0,40.0,30.00,NNE,22,9.0,11.0,33,0.00,,,0.00,TxWx,2013-02-27 21:36:00,
2013-02-27 15:37:00,71.0,41.0,30.00,NNW,337,8.0,11.0,34,0.00,,,0.00,TxWx,2013-02-27 21:37:00,
2013-02-27 15:39:00,71.0,41.0,30.00,NE,45,13.0,13.0,34,0.00,,,0.00,TxWx,2013-02-27 21:39:00,
2013-02-27 15:41:00,71.0,40.0,30.00,ENE,67,6.0,6.0,32,0.00,,,0.00,TxWx,2013-02-27 21:41:00,
2013-02-27 15:44:00,71.0,42.0,30.00,NNE,22,10.0,10.0,36,0.00,,,0.00,TxWx,2013-02-27 21:44:00,
2013-02-27 15:46:00,71.0,39.0,30.00,NNE,22,14.0,16.0,31,0.00,,,0.00,TxWx,2013-02-27 21:46:00,
2013-02-27 15:47:00,71.0,38.0,30.00,NNE,22,12.0,16.0,30,0.00,,,0.00,TxWx,2013-02-27 21:47:00,
2013-02-27 15:49:00,71.0,42.0,30.00,NNW,337,5.0,7.0,35,0.00,,,0.00,TxWx,2013-02-27 21:49:00,
2013-02-27 15:53:00,71.0,43.0,30.00,NE,45,6.0,7.0,37,0.00,,,0.00,TxWx,2013-02-27 21:53:00,
2013-02-27 15:55:00,71.0,43.0,30.00,NE,45,6.0,7.0,37,0.00,,,0.00,TxWx,2013-02-27 21:55:00,
2013-02-27 15:56:00,71.0,41.0,30.00,NNW,337,8.0,11.0,34,0.00,,,0.00,TxWx,2013-02-27 21:56:00,
2013-02-27 16:00:00,71.0,42.0,30.01,NNW,337,10.0,11.0,35,0.00,,,0.00,TxWx,2013-02-27 22:00:00,
2013-02-27 16:01:00,71.0,41.0,30.01,NNE,22,9.0,11.0,34,0.00,,,0.00,TxWx,2013-02-27 22:01:00,
2013-02-27 16:05:00,71.0,44.0,30.01,NE,45,11.0,11.0,38,0.00,,,0.00,TxWx,2013-02-27 22:05:00,
2013-02-27 16:06:00,71.0,44.0,30.01,NNE,22,14.0,14.0,38,0.00,,,0.00,TxWx,2013-02-27 22:06:00,
2013-02-27 16:11:00,70.0,45.0,30.01,North,0,7.0,10.0,40,0.00,,,0.00,TxWx,2013-02-27 22:11:00,
2013-02-27 16:13:00,70.0,45.0,30.01,NE,45,6.0,10.0,40,0.00,,,0.00,TxWx,2013-02-27 22:13:00,
2013-02-27 16:16:00,70.0,46.0,30.01,NNE,22,4.0,4.0,43,0.00,,,0.00,TxWx,2013-02-27 22:16:00,
2013-02-27 16:19:00,70.0,45.0,30.01,NE,45,9.0,9.0,42,0.00,,,0.00,TxWx,2013-02-27 22:19:00,
2013-02-27 16:21:00,70.0,45.0,30.01,NNE,22,9.0,10.0,41,0.00,,,0.00,TxWx,2013-02-27 22:21:00,
2013-02-27 16:22:00,70.0,45.0,30.01,North,0,6.0,8.0,41,0.00,,,0.00,TxWx,2013-02-27 22:22:00,
2013-02-27 16:25:00,70.0,45.0,30.01,NE,45,9.0,10.0,40,0.00,,,0.00,TxWx,2013-02-27 22:25:00,
2013-02-27 16:26:00,69.0,45.0,30.01,NE,45,8.0,10.0,42,0.00,,,0.00,TxWx,2013-02-27 22:26:00,
2013-02-27 16:27:00,69.0,45.0,30.01,NNE,22,8.0,8.0,42,0.00,,,0.00,TxWx,2013-02-27 22:27:00,
2013-02-27 16:32:00,69.0,45.0,30.01,NNE,22,8.0,8.0,43,0.00,,,0.00,TxWx,2013-02-27 22:32:00,
2013-02-27 16:34:00,69.0,44.0,30.01,NE,45,9.0,11.0,41,0.00,,,0.00,TxWx,2013-02-27 22:34:00,
2013-02-27 16:37:00,70.0,43.0,30.01,NNE,22,8.0,10.0,38,0.00,,,0.00,TxWx,2013-02-27 22:37:00,
2013-02-27 16:39:00,70.0,45.0,30.01,NE,45,10.0,10.0,40,0.00,,,0.00,TxWx,2013-02-27 22:39:00,
2013-02-27 16:40:00,70.0,45.0,30.01,NNW,337,6.0,6.0,41,0.00,,,0.00,TxWx,2013-02-27 22:40:00,
2013-02-27 16:42:00,69.0,46.0,30.01,NE,45,9.0,11.0,43,0.00,,,0.00,TxWx,2013-02-27 22:42:00,
2013-02-27 16:45:00,69.0,46.0,30.01,North,0,10.0,11.0,44,0.00,,,0.00,TxWx,2013-02-27 22:45:00,
2013-02-27 16:48:00,69.0,45.0,30.01,NNE,22,6.0,8.0,42,0.00,,,0.00,TxWx,2013-02-27 22:48:00,
2013-02-27 16:51:00,69.0,44.0,30.01,NNE,22,10.0,10.0,40,0.00,,,0.00,TxWx,2013-02-27 22:51:00,
2013-02-27 16:53:00,69.0,44.0,30.01,North,0,10.0,11.0,40,0.00,,,0.00,TxWx,2013-02-27 22:53:00,
2013-02-27 16:57:00,69.0,45.0,30.02,North,0,7.0,7.0,43,0.00,,,0.00,TxWx,2013-02-27 22:57:00,
2013-02-27 16:58:00,69.0,46.0,30.02,NNE,22,10.0,10.0,43,0.00,,,0.00,TxWx,2013-02-27 22:58:00,
2013-02-27 17:02:00,69.0,46.0,30.02,NNW,337,6.0,7.0,44,0.00,,,0.00,TxWx,2013-02-27 23:02:00,
2013-02-27 17:04:00,69.0,43.0,30.02,NE,45,10.0,10.0,40,0.00,,,0.00,TxWx,2013-02-27 23:04:00,
2013-02-27 17:08:00,69.0,45.0,30.03,NNE,22,5.0,5.0,42,0.00,,,0.00,TxWx,2013-02-27 23:08:00,
2013-02-27 17:11:00,69.0,44.0,30.03,NNE,22,12.0,14.0,41,0.00,,,0.00,TxWx,2013-02-27 23:11:00,
2013-02-27 17:13:00,69.0,44.0,30.03,NNE,22,5.0,6.0,41,0.00,,,0.00,TxWx,2013-02-27 23:13:00,
2013-02-27 17:16:00,69.0,44.0,30.03,North,0,4.0,5.0,40,0.00,,,0.00,TxWx,2013-02-27 23:16:00,
2013-02-27 17:18:00,68.0,44.0,30.03,NNE,22,8.0,10.0,43,0.00,,,0.00,TxWx,2013-02-27 23:18:00,
2013-02-27 17:19:00,68.0,45.0,30.03,NNE,22,6.0,8.0,44,0.00,,,0.00,TxWx,2013-02-27 23:19:00,
2013-02-27 17:21:00,68.0,46.0,30.03,North,0,6.0,7.0,45,0.00,,,0.00,TxWx,2013-02-27 23:21:00,
2013-02-27 17:24:00,68.0,46.0,30.03,NE,45,10.0,10.0,46,0.00,,,0.00,TxWx,2013-02-27 23:24:00,
2013-02-27 17:26:00,68.0,44.0,30.03,NNW,337,5.0,5.0,43,0.00,,,0.00,TxWx,2013-02-27 23:26:00,
2013-02-27 17:30:00,68.0,46.0,30.03,NNE,22,13.0,13.0,45,0.00,,,0.00,TxWx,2013-02-27 23:30:00,
2013-02-27 17:33:00,68.0,43.0,30.03,NNW,337,13.0,14.0,41,0.00,,,0.00,TxWx,2013-02-27 23:33:00,
2013-02-27 17:35:00,68.0,45.0,30.03,NE,45,8.0,10.0,43,0.00,,,0.00,TxWx,2013-02-27 23:35:00,
2013-02-27 17:36:00,68.0,45.0,30.03,NNE,22,11.0,11.0,44,0.00,,,0.00,TxWx,2013-02-27 23:36:00,
2013-02-27 17:37:00,68.0,46.0,30.03,NNE,22,7.0,10.0,45,0.00,,,0.00,TxWx,2013-02-27 23:37:00,
2013-02-27 17:38:00,68.0,45.0,30.03,NNE,22,10.0,10.0,44,0.00,,,0.00,TxWx,2013-02-27 23:38:00,
2013-02-27 17:41:00,68.0,45.0,30.03,NNE,22,8.0,8.0,44,0.00,,,0.00,TxWx,2013-02-27 23:41:00,
2013-02-27 17:42:00,68.0,45.0,30.03,NNE,22,11.0,11.0,44,0.00,,,0.00,TxWx,2013-02-27 23:42:00,
2013-02-27 17:43:00,68.0,45.0,30.03,North,0,8.0,11.0,44,0.00,,,0.00,TxWx,2013-02-27 23:43:00,
2013-02-27 17:47:00,68.0,44.0,30.03,NNW,337,8.0,9.0,43,0.00,,,0.00,TxWx,2013-02-27 23:47:00,
2013-02-27 17:48:00,68.0,45.0,30.03,NNE,22,11.0,11.0,43,0.00,,,0.00,TxWx,2013-02-27 23:48:00,
2013-02-27 17:53:00,67.0,44.0,30.03,NNE,22,10.0,10.0,43,0.00,,,0.00,TxWx,2013-02-27 23:53:00,
2013-02-27 17:54:00,67.0,44.0,30.03,NNE,22,6.0,8.0,44,0.00,,,0.00,TxWx,2013-02-27 23:54:00,
2013-02-27 17:58:00,67.0,43.0,30.03,NNE,22,8.0,8.0,43,0.00,,,0.00,TxWx,2013-02-27 23:58:00,
2013-02-27 17:59:00,67.0,44.0,30.03,NE,45,7.0,7.0,43,0.00,,,0.00,TxWx,2013-02-27 23:59:00,
2013-02-27 18:01:00,67.0,44.0,30.04,NNE,22,8.0,8.0,44,0.00,,,0.00,TxWx,2013-02-28 00:01:00,
2013-02-27 18:04:00,67.0,44.0,30.04,NNE,22,5.0,7.0,44,0.00,,,0.00,TxWx,2013-02-28 00:04:00,
2013-02-27 18:09:00,67.0,46.0,30.04,NNE,22,5.0,6.0,47,0.00,,,0.00,TxWx,2013-02-28 00:09:00,
2013-02-27 18:10:00,67.0,46.0,30.04,NNE,22,6.0,7.0,48,0.00,,,0.00,TxWx,2013-02-28 00:10:00,
2013-02-27 18:12:00,67.0,45.0,30.04,NNE,22,10.0,10.0,46,0.00,,,0.00,TxWx,2013-02-28 00:12:00,
2013-02-27 18:14:00,67.0,45.0,30.04,NNE,22,10.0,10.0,45,0.00,,,0.00,TxWx,2013-02-28 00:14:00,
2013-02-27 18:15:00,67.0,45.0,30.04,NNE,22,12.0,12.0,45,0.00,,,0.00,TxWx,2013-02-28 00:15:00,
2013-02-27 18:18:00,67.0,45.0,30.05,NE,45,11.0,11.0,46,0.00,,,0.00,TxWx,2013-02-28 00:18:00,
2013-02-27 18:19:00,66.0,45.0,30.05,NNE,22,10.0,10.0,48,0.00,,,0.00,TxWx,2013-02-28 00:19:00,
2013-02-27 18:23:00,66.0,46.0,30.05,NE,45,9.0,9.0,48,0.00,,,0.00,TxWx,2013-02-28 00:23:00,
2013-02-27 18:25:00,66.0,43.0,30.05,NNE,22,11.0,11.0,44,0.00,,,0.00,TxWx,2013-02-28 00:25:00,
2013-02-27 18:26:00,66.0,44.0,30.05,NNE,22,7.0,8.0,46,0.00,,,0.00,TxWx,2013-02-28 00:26:00,
2013-02-27 18:28:00,66.0,45.0,30.05,NNE,22,12.0,13.0,47,0.00,,,0.00,TxWx,2013-02-28 00:28:00,
2013-02-27 18:30:00,66.0,45.0,30.05,NNE,22,11.0,11.0,47,0.00,,,0.00,TxWx,2013-02-28 00:30:00,
2013-02-27 18:32:00,66.0,46.0,30.05,NNE,22,9.0,11.0,48,0.00,,,0.00,TxWx,2013-02-28 00:32:00,
2013-02-27 18:34:00,66.0,47.0,30.06,NNE,22,11.0,11.0,50,0.00,,,0.00,TxWx,2013-02-28 00:34:00,
2013-02-27 18:37:00,66.0,47.0,30.05,NNE,22,8.0,9.0,51,0.00,,,0.00,TxWx,2013-02-28 00:37:00,
2013-02-27 18:39:00,66.0,47.0,30.06,NE,45,10.0,10.0,51,0.00,,,0.00,TxWx,2013-02-28 00:39:00,
2013-02-27 18:40:00,66.0,47.0,30.06,NNE,22,8.0,8.0,51,0.00,,,0.00,TxWx,2013-02-28 00:40:00,
2013-02-27 18:44:00,66.0,48.0,30.06,NE,45,10.0,10.0,53,0.00,,,0.00,TxWx,2013-02-28 00:44:00,
2013-02-27 18:45:00,66.0,47.0,30.06,ENE,67,8.0,8.0,51,0.00,,,0.00,TxWx,2013-02-28 00:45:00,
2013-02-27 18:49:00,66.0,47.0,30.06,NE,45,8.0,8.0,50,0.00,,,0.00,TxWx,2013-02-28 00:49:00,
2013-02-27 18:51:00,66.0,47.0,30.06,NNE,22,10.0,10.0,51,0.00,,,0.00,TxWx,2013-02-28 00:51:00,
2013-02-27 18:54:00,65.0,46.0,30.06,NNE,22,10.0,10.0,51,0.00,,,0.00,TxWx,2013-02-28 00:54:00,
2013-02-27 18:56:00,65.0,47.0,30.07,NNW,337,6.0,6.0,52,0.00,,,0.00,TxWx,2013-02-28 00:56:00,
2013-02-27 18:57:00,65.0,48.0,30.07,ENE,67,5.0,5.0,55,0.00,,,0.00,TxWx,2013-02-28 00:57:00,
2013-02-27 18:58:00,65.0,48.0,30.07,NE,45,6.0,6.0,55,0.00,,,0.00,TxWx,2013-02-28 00:58:00,
2013-02-27 19:02:00,65.0,47.0,30.07,NNE,22,9.0,9.0,53,0.00,,,0.00,TxWx,2013-02-28 01:02:00,
2013-02-27 19:03:00,65.0,47.0,30.07,NE,45,6.0,6.0,52,0.00,,,0.00,TxWx,2013-02-28 01:03:00,
2013-02-27 19:04:00,65.0,47.0,30.07,NNE,22,7.0,8.0,53,0.00,,,0.00,TxWx,2013-02-28 01:04:00,
2013-02-27 19:08:00,65.0,46.0,30.07,NNE,22,8.0,9.0,50,0.00,,,0.00,TxWx,2013-02-28 01:08:00,
2013-02-27 19:09:00,65.0,46.0,30.07,NNE,22,8.0,9.0,50,0.00,,,0.00,TxWx,2013-02-28 01:09:00,
2013-02-27 19:10:00,65.0,45.0,30.07,NE,45,10.0,10.0,49,0.00,,,0.00,TxWx,2013-02-28 01:10:00,
2013-02-27 19:13:00,65.0,44.0,30.07,NNE,22,6.0,6.0,47,0.00,,,0.00,TxWx,2013-02-28 01:13:00,
2013-02-27 19:16:00,65.0,43.0,30.08,NNE,22,10.0,10.0,45,0.00,,,0.00,TxWx,2013-02-28 01:16:00,
2013-02-27 19:17:00,65.0,43.0,30.08,North,0,7.0,8.0,46,0.00,,,0.00,TxWx,2013-02-28 01:17:00,
2013-02-27 19:18:00,65.0,44.0,30.08,NNE,22,10.0,12.0,47,0.00,,,0.00,TxWx,2013-02-28 01:18:00,
2013-02-27 19:19:00,65.0,44.0,30.08,ENE,67,6.0,9.0,47,0.00,,,0.00,TxWx,2013-02-28 01:19:00,
2013-02-27 19:22:00,65.0,46.0,30.08,ENE,67,6.0,6.0,50,0.00,,,0.00,TxWx,2013-02-28 01:22:00,
2013-02-27 19:24:00,65.0,47.0,30.08,NE,45,8.0,8.0,52,0.00,,,0.00,TxWx,2013-02-28 01:24:00,
2013-02-27 19:27:00,65.0,47.0,30.08,NNE,22,8.0,9.0,52,0.00,,,0.00,TxWx,2013-02-28 01:27:00,
2013-02-27 19:29:00,65.0,45.0,30.08,NE,45,8.0,11.0,49,0.00,,,0.00,TxWx,2013-02-28 01:29:00,
2013-02-27 19:30:00,65.0,45.0,30.08,NNE,22,8.0,10.0,49,0.00,,,0.00,TxWx,2013-02-28 01:30:00,
2013-02-27 19:32:00,65.0,45.0,30.09,NE,45,8.0,11.0,49,0.00,,,0.00,TxWx,2013-02-28 01:32:00,
2013-02-27 19:33:00,65.0,45.0,30.09,NNE,22,7.0,7.0,49,0.00,,,0.00,TxWx,2013-02-28 01:33:00,
2013-02-27 19:35:00,65.0,46.0,30.09,NE,45,8.0,10.0,51,0.00,,,0.00,TxWx,2013-02-28 01:35:00,
2013-02-27 19:37:00,64.0,46.0,30.09,NNE,22,5.0,5.0,53,0.00,,,0.00,TxWx,2013-02-28 01:37:00,
2013-02-27 19:40:00,64.0,47.0,30.09,NE,45,10.0,10.0,55,0.00,,,0.00,TxWx,2013-02-28 01:40:00,
2013-02-27 19:41:00,64.0,47.0,30.09,NE,45,6.0,6.0,55,0.00,,,0.00,TxWx,2013-02-28 01:41:00,
2013-02-27 19:43:00,64.0,45.0,30.09,ENE,67,5.0,6.0,51,0.00,,,0.00,TxWx,2013-02-28 01:43:00,
2013-02-27 19:45:00,64.0,44.0,30.09,NE,45,8.0,8.0,48,0.00,,,0.00,TxWx,2013-02-28 01:45:00,
2013-02-27 19:46:00,64.0,44.0,30.09,NNE,22,6.0,6.0,48,0.00,,,0.00,TxWx,2013-02-28 01:46:00,
2013-02-27 19:48:00,64.0,43.0,30.09,ENE,67,8.0,9.0,47,0.00,,,0.00,TxWx,2013-02-28 01:48:00,
2013-02-27 19:52:00,64.0,44.0,30.10,NE,45,9.0,10.0,49,0.00,,,0.00,TxWx,2013-02-28 01:52:00,
2013-02-27 19:54:00,64.0,44.0,30.10,NE,45,9.0,13.0,49,0.00,,,0.00,TxWx,2013-02-28 01:54:00,
2013-02-27 19:55:00,64.0,45.0,30.10,NNE,22,6.0,10.0,51,0.00,,,0.00,TxWx,2013-02-28 01:55:00,
2013-02-27 19:57:00,64.0,44.0,30.10,NE,45,10.0,10.0,48,0.00,,,0.00,TxWx,2013-02-28 01:57:00,
2013-02-27 19:59:00,64.0,44.0,30.10,NE,45,8.0,10.0,48,0.00,,,0.00,TxWx,2013-02-28 01:59:00,
2013-02-27 20:01:00,64.0,44.0,30.10,NE,45,9.0,10.0,48,0.00,,,0.00,TxWx,2013-02-28 02:01:00,
2013-02-27 20:05:00,64.0,43.0,30.10,NNE,22,7.0,8.0,47,0.00,,,0.00,TxWx,2013-02-28 02:05:00,
2013-02-27 20:06:00,64.0,45.0,30.10,NE,45,8.0,10.0,50,0.00,,,0.00,TxWx,2013-02-28 02:06:00,
2013-02-27 20:10:00,64.0,45.0,30.11,NNW,337,5.0,6.0,51,0.00,,,0.00,TxWx,2013-02-28 02:10:00,
2013-02-27 20:12:00,64.0,45.0,30.11,NE,45,10.0,10.0,50,0.00,,,0.00,TxWx,2013-02-28 02:12:00,
2013-02-27 20:15:00,64.0,45.0,30.11,NNW,337,5.0,5.0,51,0.00,,,0.00,TxWx,2013-02-28 02:15:00,
2013-02-27 20:16:00,63.0,45.0,30.11,North,0,7.0,10.0,51,0.00,,,0.00,TxWx,2013-02-28 02:16:00,
2013-02-27 20:18:00,63.0,43.0,30.11,NNE,22,6.0,6.0,48,0.00,,,0.00,TxWx,2013-02-28 02:18:00,
2013-02-27 20:21:00,63.0,42.0,30.11,NNE,22,11.0,11.0,47,0.00,,,0.00,TxWx,2013-02-28 02:21:00,
2013-02-27 20:25:00,63.0,44.0,30.11,ENE,67,9.0,9.0,51,0.00,,,0.00,TxWx,2013-02-28 02:25:00,
2013-02-27 20:27:00,63.0,44.0,30.11,NNW,337,5.0,7.0,51,0.00,,,0.00,TxWx,2013-02-28 02:27:00,
2013-02-27 20:29:00,63.0,45.0,30.11,NNE,22,3.0,3.0,51,0.00,,,0.00,TxWx,2013-02-28 02:29:00,
2013-02-27 20:30:00,63.0,44.0,30.11,NE,45,5.0,5.0,51,0.00,,,0.00,TxWx,2013-02-28 02:30:00,
2013-02-27 20:33:00,63.0,43.0,30.12,NNE,22,8.0,9.0,48,0.00,,,0.00,TxWx,2013-02-28 02:33:00,
2013-02-27 20:35:00,63.0,42.0,30.12,NNE,22,9.0,9.0,47,0.00,,,0.00,TxWx,2013-02-28 02:35:00,
2013-02-27 20:38:00,63.0,43.0,30.12,NNE,22,8.0,10.0,48,0.00,,,0.00,TxWx,2013-02-28 02:38:00,
2013-02-27 20:40:00,63.0,41.0,30.12,NE,45,11.0,12.0,45,0.00,,,0.00,TxWx,2013-02-28 02:40:00,
2013-02-27 20:41:00,63.0,42.0,30.12,ENE,67,6.0,6.0,46,0.00,,,0.00,TxWx,2013-02-28 02:41:00,
2013-02-27 20:43:00,63.0,43.0,30.12,NNE,22,9.0,9.0,48,0.00,,,0.00,TxWx,2013-02-28 02:43:00,
2013-02-27 20:46:00,63.0,42.0,30.12,NE,45,10.0,10.0,46,0.00,,,0.00,TxWx,2013-02-28 02:46:00,
2013-02-27 20:47:00,63.0,42.0,30.12,NNE,22,8.0,10.0,46,0.00,,,0.00,TxWx,2013-02-28 02:47:00,
2013-02-27 20:48:00,63.0,43.0,30.12,NNE,22,10.0,10.0,49,0.00,,,0.00,TxWx,2013-02-28 02:48:00,
2013-02-27 20:52:00,62.0,44.0,30.12,NNE,22,5.0,5.0,53,0.00,,,0.00,TxWx,2013-02-28 02:52:00,
2013-02-27 20:53:00,62.0,44.0,30.12,NNE,22,5.0,5.0,52,0.00,,,0.00,TxWx,2013-02-28 02:53:00,
2013-02-27 20:57:00,62.0,42.0,30.13,NE,45,9.0,10.0,48,0.00,,,0.00,TxWx,2013-02-28 02:57:00,
2013-02-27 20:58:00,62.0,42.0,30.12,NE,45,6.0,6.0,48,0.00,,,0.00,TxWx,2013-02-28 02:58:00,
2013-02-27 21:02:00,62.0,42.0,30.13,NE,45,11.0,11.0,48,0.00,,,0.00,TxWx,2013-02-28 03:02:00,
2013-02-27 21:03:00,62.0,42.0,30.13,NNE,22,10.0,11.0,48,0.00,,,0.00,TxWx,2013-02-28 03:03:00,
2013-02-27 21:07:00,62.0,43.0,30.13,North,0,9.0,9.0,49,0.00,,,0.00,TxWx,2013-02-28 03:07:00,
2013-02-27 21:08:00,62.0,42.0,30.13,NNE,22,9.0,9.0,48,0.00,,,0.00,TxWx,2013-02-28 03:08:00,
2013-02-27 21:09:00,62.0,42.0,30.13,ENE,67,6.0,6.0,48,0.00,,,0.00,TxWx,2013-02-28 03:09:00,
2013-02-27 21:12:00,62.0,44.0,30.13,NE,45,9.0,9.0,52,0.00,,,0.00,TxWx,2013-02-28 03:12:00,
2013-02-27 21:14:00,62.0,44.0,30.13,North,0,5.0,7.0,53,0.00,,,0.00,TxWx,2013-02-28 03:14:00,
2013-02-27 21:15:00,62.0,43.0,30.13,NNE,22,10.0,10.0,50,0.00,,,0.00,TxWx,2013-02-28 03:15:00,
2013-02-27 21:19:00,62.0,42.0,30.14,NNE,22,10.0,11.0,49,0.00,,,0.00,TxWx,2013-02-28 03:19:00,
2013-02-27 21:24:00,62.0,42.0,30.14,NNW,337,9.0,11.0,48,0.00,,,0.00,TxWx,2013-02-28 03:24:00,
2013-02-27 21:25:00,62.0,43.0,30.14,NE,45,13.0,13.0,50,0.00,,,0.00,TxWx,2013-02-28 03:25:00,
2013-02-27 21:27:00,62.0,41.0,30.14,NNE,22,11.0,11.0,47,0.00,,,0.00,TxWx,2013-02-28 03:27:00,
2013-02-27 21:28:00,62.0,41.0,30.14,NNE,22,8.0,8.0,47,0.00,,,0.00,TxWx,2013-02-28 03:28:00,
2013-02-27 21:29:00,62.0,42.0,30.14,NE,45,8.0,8.0,48,0.00,,,0.00,TxWx,2013-02-28 03:29:00,
2013-02-27 21:33:00,62.0,42.0,30.14,NNE,22,10.0,11.0,48,0.00,,,0.00,TxWx,2013-02-28 03:33:00,
2013-02-27 21:35:00,62.0,43.0,30.15,ENE,67,8.0,10.0,49,0.00,,,0.00,TxWx,2013-02-28 03:35:00,
2013-02-27 21:39:00,62.0,41.0,30.15,ENE,67,11.0,11.0,47,0.00,,,0.00,TxWx,2013-02-28 03:39:00,
2013-02-27 21:40:00,62.0,41.0,30.15,NNE,22,8.0,10.0,47,0.00,,,0.00,TxWx,2013-02-28 03:40:00,
2013-02-27 21:41:00,62.0,41.0,30.15,NNE,22,14.0,16.0,47,0.00,,,0.00,TxWx,2013-02-28 03:41:00,
2013-02-27 21:44:00,62.0,41.0,30.15,NE,45,11.0,13.0,47,0.00,,,0.00,TxWx,2013-02-28 03:44:00,
2013-02-27 21:45:00,62.0,42.0,30.15,ENE,67,9.0,10.0,48,0.00,,,0.00,TxWx,2013-02-28 03:45:00,
2013-02-27 21:46:00,62.0,42.0,30.15,NE,45,11.0,12.0,48,0.00,,,0.00,TxWx,2013-02-28 03:46:00,
2013-02-27 21:50:00,62.0,42.0,30.15,NNE,22,13.0,13.0,49,0.00,,,0.00,TxWx,2013-02-28 03:50:00,
2013-02-27 21:51:00,62.0,41.0,30.15,NE,45,10.0,10.0,47,0.00,,,0.00,TxWx,2013-02-28 03:51:00,
2013-02-27 21:55:00,62.0,41.0,30.15,NNE,22,13.0,13.0,46,0.00,,,0.00,TxWx,2013-02-28 03:55:00,
2013-02-27 21:56:00,62.0,42.0,30.15,NE,45,12.0,12.0,48,0.00,,,0.00,TxWx,2013-02-28 03:56:00,
2013-02-27 21:57:00,62.0,41.0,30.15,NE,45,7.0,8.0,46,0.00,,,0.00,TxWx,2013-02-28 03:57:00,
2013-02-27 21:58:00,62.0,41.0,30.15,NNE,22,11.0,11.0,47,0.00,,,0.00,TxWx,2013-02-28 03:58:00,
2013-02-27 21:59:00,60.0,40.0,30.16,NE,45,8.0,10.0,49,0.00,,,0.00,TxWx,2013-02-28 03:59:00,
2013-02-27 22:00:00,62.0,41.0,30.15,NNE,22,9.0,11.0,47,0.00,,,0.00,TxWx,2013-02-28 04:00:00,
2013-02-27 22:01:00,61.0,39.0,30.15,NE,45,12.0,12.0,45,0.00,,,0.00,TxWx,2013-02-28 04:01:00,
2013-02-27 22:02:00,62.0,41.0,30.15,North,0,11.0,11.0,47,0.00,,,0.00,TxWx,2013-02-28 04:02:00,
2013-02-27 22:03:00,60.0,41.0,30.16,NNE,22,13.0,13.0,50,0.00,,,0.00,TxWx,2013-02-28 04:03:00,
2013-02-27 22:04:00,60.0,42.0,30.16,NNE,22,8.0,8.0,51,0.00,,,0.00,TxWx,2013-02-28 04:04:00,
2013-02-27 22:05:00,61.0,40.0,30.16,NNE,22,13.0,13.0,46,0.00,,,0.00,TxWx,2013-02-28 04:05:00,
2013-02-27 22:06:00,60.0,41.0,30.16,NNE,22,11.0,11.0,50,0.00,,,0.00,TxWx,2013-02-28 04:06:00,
2013-02-27 22:07:00,61.0,41.0,30.16,NNE,22,7.0,8.0,47,0.00,,,0.00,TxWx,2013-02-28 04:07:00,
2013-02-27 22:08:00,60.0,41.0,30.16,NNE,22,13.0,13.0,50,0.00,,,0.00,TxWx,2013-02-28 04:08:00,
2013-02-27 22:09:00,60.0,41.0,30.16,NE,45,5.0,5.0,50,0.00,,,0.00,TxWx,2013-02-28 04:09:00,
2013-02-27 22:10:00,60.0,42.0,30.16,NNE,22,8.0,9.0,52,0.00,,,0.00,TxWx,2013-02-28 04:10:00,
2013-02-27 22:11:00,60.0,42.0,30.16,ENE,67,11.0,11.0,51,0.00,,,0.00,TxWx,2013-02-28 04:11:00,
2013-02-27 22:12:00,61.0,40.0,30.16,NE,45,8.0,8.0,46,0.00,,,0.00,TxWx,2013-02-28 04:12:00,
2013-02-27 22:13:00,60.0,42.0,30.16,NE,45,11.0,13.0,51,0.00,,,0.00,TxWx,2013-02-28 04:13:00,
2013-02-27 22:14:00,60.0,41.0,30.16,NE,45,10.0,10.0,50,0.00,,,0.00,TxWx,2013-02-28 04:14:00,
2013-02-27 22:15:00,61.0,39.0,30.16,NNE,22,12.0,13.0,45,0.00,,,0.00,TxWx,2013-02-28 04:15:00,
2013-02-27 22:16:00,61.0,40.0,30.16,NE,45,11.0,12.0,46,0.00,,,0.00,TxWx,2013-02-28 04:16:00,
2013-02-27 22:17:00,60.0,40.0,30.16,ENE,67,9.0,9.0,49,0.00,,,0.00,TxWx,2013-02-28 04:17:00,
2013-02-27 22:18:00,61.0,41.0,30.16,East,90,6.0,8.0,47,0.00,,,0.00,TxWx,2013-02-28 04:18:00,
2013-02-27 22:19:00,60.0,41.0,30.16,NE,45,13.0,13.0,50,0.00,,,0.00,TxWx,2013-02-28 04:19:00,
2013-02-27 22:20:00,60.0,41.0,30.16,ENE,67,11.0,11.0,50,0.00,,,0.00,TxWx,2013-02-28 04:20:00,
2013-02-27 22:21:00,60.0,42.0,30.16,NNW,337,5.0,6.0,52,0.00,,,0.00,TxWx,2013-02-28 04:21:00,
2013-02-27 22:22:00,61.0,40.0,30.16,East,90,6.0,10.0,47,0.00,,,0.00,TxWx,2013-02-28 04:22:00,
2013-02-27 22:23:00,61.0,42.0,30.16,ENE,67,8.0,8.0,49,0.00,,,0.00,TxWx,2013-02-28 04:23:00,
2013-02-27 22:24:00,61.0,42.0,30.16,NE,45,12.0,13.0,49,0.00,,,0.00,TxWx,2013-02-28 04:24:00,
2013-02-27 22:25:00,61.0,41.0,30.16,ENE,67,7.0,10.0,48,0.00,,,0.00,TxWx,2013-02-28 04:25:00,
2013-02-27 22:26:00,60.0,41.0,30.16,NE,45,9.0,10.0,50,0.00,,,0.00,TxWx,2013-02-28 04:26:00,
2013-02-27 22:29:00,61.0,41.0,30.16,ENE,67,10.0,10.0,48,0.00,,,0.00,TxWx,2013-02-28 04:29:00,
2013-02-27 22:30:00,61.0,41.0,30.16,NE,45,11.0,11.0,47,0.00,,,0.00,TxWx,2013-02-28 04:30:00,
2013-02-27 22:31:00,61.0,41.0,30.16,ENE,67,10.0,11.0,47,0.00,,,0.00,TxWx,2013-02-28 04:31:00,
2013-02-27 22:35:00,60.0,40.0,30.16,NE,45,8.0,9.0,48,0.00,,,0.00,TxWx,2013-02-28 04:35:00,
2013-02-27 22:36:00,60.0,40.0,30.16,NE,45,6.0,6.0,47,0.00,,,0.00,TxWx,2013-02-28 04:36:00,
2013-02-27 22:37:00,60.0,41.0,30.16,NE,45,11.0,11.0,50,0.00,,,0.00,TxWx,2013-02-28 04:37:00,
2013-02-27 22:38:00,60.0,41.0,30.16,NE,45,6.0,7.0,50,0.00,,,0.00,TxWx,2013-02-28 04:38:00,
2013-02-27 22:41:00,60.0,40.0,30.16,NE,45,13.0,13.0,48,0.00,,,0.00,TxWx,2013-02-28 04:41:00,
2013-02-27 22:43:00,60.0,40.0,30.16,NE,45,10.0,10.0,47,0.00,,,0.00,TxWx,2013-02-28 04:43:00,
2013-02-27 22:44:00,60.0,40.0,30.16,ENE,67,10.0,12.0,47,0.00,,,0.00,TxWx,2013-02-28 04:44:00,
2013-02-27 22:46:00,60.0,40.0,30.16,NNE,22,11.0,12.0,48,0.00,,,0.00,TxWx,2013-02-28 04:46:00,
2013-02-27 22:48:00,60.0,40.0,30.16,North,0,9.0,10.0,48,0.00,,,0.00,TxWx,2013-02-28 04:48:00,
2013-02-27 22:51:00,60.0,40.0,30.16,NNE,22,10.0,11.0,49,0.00,,,0.00,TxWx,2013-02-28 04:51:00,
2013-02-27 22:52:00,60.0,41.0,30.16,NE,45,10.0,10.0,50,0.00,,,0.00,TxWx,2013-02-28 04:52:00,
2013-02-27 22:53:00,60.0,41.0,30.16,NNE,22,6.0,6.0,50,0.00,,,0.00,TxWx,2013-02-28 04:53:00,
2013-02-27 22:54:00,60.0,42.0,30.16,ENE,67,7.0,7.0,51,0.00,,,0.00,TxWx,2013-02-28 04:54:00,
2013-02-27 22:56:00,60.0,41.0,30.16,NNE,22,11.0,13.0,50,0.00,,,0.00,TxWx,2013-02-28 04:56:00,
2013-02-27 22:58:00,60.0,42.0,30.16,NE,45,8.0,8.0,51,0.00,,,0.00,TxWx,2013-02-28 04:58:00,
2013-02-27 22:59:00,60.0,41.0,30.16,NE,45,11.0,12.0,50,0.00,,,0.00,TxWx,2013-02-28 04:59:00,
2013-02-27 23:25:00,60.0,41.0,30.16,NNE,22,12.0,13.0,50,0.00,,,0.00,TxWx,2013-02-28 05:25:00,
2013-02-27 23:27:00,60.0,42.0,30.16,ENE,67,5.0,6.0,52,0.00,,,0.00,TxWx,2013-02-28 05:27:00,
2013-02-27 23:30:00,59.0,41.0,30.16,NNE,22,9.0,11.0,51,0.00,,,0.00,TxWx,2013-02-28 05:30:00,
2013-02-27 23:31:00,59.0,41.0,30.16,ENE,67,10.0,10.0,51,0.00,,,0.00,TxWx,2013-02-28 05:31:00,
2013-02-27 23:32:00,60.0,42.0,30.16,ENE,67,8.0,10.0,51,0.00,,,0.00,TxWx,2013-02-28 05:32:00,
2013-02-27 23:37:00,59.0,42.0,30.16,NE,45,8.0,8.0,53,0.00,,,0.00,TxWx,2013-02-28 05:37:00,
2013-02-27 23:39:00,59.0,42.0,30.16,NE,45,10.0,10.0,54,0.00,,,0.00,TxWx,2013-02-28 05:39:00,
2013-02-27 23:42:00,59.0,42.0,30.16,NNE,22,11.0,11.0,53,0.00,,,0.00,TxWx,2013-02-28 05:42:00,
2013-02-27 23:43:00,59.0,41.0,30.16,NE,45,6.0,7.0,52,0.00,,,0.00,TxWx,2013-02-28 05:43:00,
2013-02-27 23:44:00,59.0,42.0,30.16,NNE,22,10.0,10.0,53,0.00,,,0.00,TxWx,2013-02-28 05:44:00,
2013-02-27 23:48:00,59.0,42.0,30.16,NE,45,11.0,13.0,53,0.00,,,0.00,TxWx,2013-02-28 05:48:00,
2013-02-27 23:49:00,59.0,41.0,30.16,East,90,4.0,5.0,52,0.00,,,0.00,TxWx,2013-02-28 05:49:00,
2013-02-27 23:51:00,59.0,41.0,30.16,NNE,22,6.0,10.0,52,0.00,,,0.00,TxWx,2013-02-28 05:51:00,
2013-02-27 23:54:00,59.0,41.0,30.16,NNE,22,9.0,10.0,51,0.00,,,0.00,TxWx,2013-02-28 05:54:00,
2013-02-27 23:57:00,59.0,40.0,30.16,NE,45,10.0,11.0,50,0.00,,,0.00,TxWx,2013-02-28 05:57:00,
2013-02-27 23:59:00,59.0,40.0,30.16,ENE,67,8.0,8.0,50,0.00,,,0.00,TxWx,2013-02-28 05:59:00,